<?xml version="1.0" encoding="UTF-8" standalone="yes"?>
<gpx
 xmlns="http://www.topografix.com/GPX/1/1"
 creator="OziExplorer Version 3955n - http://www.oziexplorer.com"
 version="1.1"
 xmlns:xsi="http://www.w3.org/2001/XMLSchema-instance"
 xsi:schemaLocation="http://www.topografix.com/GPX/1/1 http://www.topografix.com/GPX/1/1/gpx.xsd">
<metadata>
 <time>2013-05-02T05:35:04Z</time>
 <bounds minlat="32.740926" minlon="35.236978" maxlat="32.770666" maxlon="35.286023"/>
</metadata>
<trk>
 <name>mark20130426.</name>
 <desc>ACTIVE LOG062017</desc>
<trkseg>
<trkpt lat="32.7506370" lon="35.2412830">
<ele>174.670013</ele>
<time>2013-04-26T04:20:17.000Z</time>
</trkpt>
<trkpt lat="32.7506320" lon="35.2412870">
<ele>177.685989</ele>
<time>2013-04-26T04:20:36.000Z</time>
</trkpt>
<trkpt lat="32.7506890" lon="35.2412540">
<ele>178.487000</ele>
<time>2013-04-26T04:21:51.000Z</time>
</trkpt>
<trkpt lat="32.7507620" lon="35.2412600">
<ele>178.242996</ele>
<time>2013-04-26T04:22:07.000Z</time>
</trkpt>
<trkpt lat="32.7509860" lon="35.2413230">
<ele>179.181000</ele>
<time>2013-04-26T04:22:17.000Z</time>
</trkpt>
<trkpt lat="32.7510650" lon="35.2416020">
<ele>176.721008</ele>
<time>2013-04-26T04:22:25.000Z</time>
</trkpt>
<trkpt lat="32.7509670" lon="35.2419200">
<ele>172.899002</ele>
<time>2013-04-26T04:22:31.000Z</time>
</trkpt>
<trkpt lat="32.7509520" lon="35.2419770">
<ele>172.830994</ele>
<time>2013-04-26T04:22:32.000Z</time>
</trkpt>
<trkpt lat="32.7509260" lon="35.2420970">
<ele>171.595001</ele>
<time>2013-04-26T04:22:34.000Z</time>
</trkpt>
<trkpt lat="32.7508550" lon="35.2427080">
<ele>168.572998</ele>
<time>2013-04-26T04:22:43.000Z</time>
</trkpt>
<trkpt lat="32.7508200" lon="35.2431460">
<ele>166.996002</ele>
<time>2013-04-26T04:22:52.000Z</time>
</trkpt>
<trkpt lat="32.7507490" lon="35.2432450">
<ele>165.696991</ele>
<time>2013-04-26T04:22:56.000Z</time>
</trkpt>
<trkpt lat="32.7503330" lon="35.2434040">
<ele>165.510010</ele>
<time>2013-04-26T04:23:05.000Z</time>
</trkpt>
<trkpt lat="32.7498840" lon="35.2436890">
<ele>165.152008</ele>
<time>2013-04-26T04:23:16.000Z</time>
</trkpt>
<trkpt lat="32.7496760" lon="35.2438990">
<ele>164.977997</ele>
<time>2013-04-26T04:23:24.000Z</time>
</trkpt>
<trkpt lat="32.7497290" lon="35.2439770">
<ele>164.434006</ele>
<time>2013-04-26T04:23:26.000Z</time>
</trkpt>
<trkpt lat="32.7498260" lon="35.2440880">
<ele>164.034012</ele>
<time>2013-04-26T04:23:29.000Z</time>
</trkpt>
<trkpt lat="32.7502020" lon="35.2446530">
<ele>160.701004</ele>
<time>2013-04-26T04:23:40.000Z</time>
</trkpt>
<trkpt lat="32.7508140" lon="35.2454830">
<ele>159.523987</ele>
<time>2013-04-26T04:23:56.000Z</time>
</trkpt>
<trkpt lat="32.7509010" lon="35.2455930">
<ele>159.996002</ele>
<time>2013-04-26T04:24:00.000Z</time>
</trkpt>
<trkpt lat="32.7510500" lon="35.2457580">
<ele>159.865997</ele>
<time>2013-04-26T04:24:07.000Z</time>
</trkpt>
<trkpt lat="32.7513970" lon="35.2457230">
<ele>161.019012</ele>
<time>2013-04-26T04:24:18.000Z</time>
</trkpt>
<trkpt lat="32.7514920" lon="35.2458850">
<ele>161.186996</ele>
<time>2013-04-26T04:24:25.000Z</time>
</trkpt>
<trkpt lat="32.7515140" lon="35.2461390">
<ele>160.675995</ele>
<time>2013-04-26T04:24:34.000Z</time>
</trkpt>
<trkpt lat="32.7514280" lon="35.2456420">
<ele>160.822998</ele>
<time>2013-04-26T05:01:39.000Z</time>
</trkpt>
<trkpt lat="32.7514250" lon="35.2455960">
<ele>161.044998</ele>
<time>2013-04-26T05:01:52.000Z</time>
</trkpt>
<trkpt lat="32.7514250" lon="35.2455820">
<ele>161.332001</ele>
<time>2013-04-26T05:02:06.000Z</time>
</trkpt>
<trkpt lat="32.7514890" lon="35.2454860">
<ele>160.775986</ele>
<time>2013-04-26T05:02:11.000Z</time>
</trkpt>
<trkpt lat="32.7516510" lon="35.2452230">
<ele>158.723007</ele>
<time>2013-04-26T05:02:18.000Z</time>
</trkpt>
<trkpt lat="32.7521560" lon="35.2446320">
<ele>157.075989</ele>
<time>2013-04-26T05:02:34.000Z</time>
</trkpt>
<trkpt lat="32.7527210" lon="35.2440990">
<ele>156.365005</ele>
<time>2013-04-26T05:02:50.000Z</time>
</trkpt>
<trkpt lat="32.7533640" lon="35.2435060">
<ele>154.455994</ele>
<time>2013-04-26T05:03:06.000Z</time>
</trkpt>
<trkpt lat="32.7537880" lon="35.2431020">
<ele>153.369995</ele>
<time>2013-04-26T05:03:16.000Z</time>
</trkpt>
<trkpt lat="32.7542370" lon="35.2426600">
<ele>153.750000</ele>
<time>2013-04-26T05:03:28.000Z</time>
</trkpt>
<trkpt lat="32.7545450" lon="35.2421920">
<ele>153.375992</ele>
<time>2013-04-26T05:03:40.000Z</time>
</trkpt>
<trkpt lat="32.7548640" lon="35.2414800">
<ele>151.451996</ele>
<time>2013-04-26T05:03:56.000Z</time>
</trkpt>
<trkpt lat="32.7549220" lon="35.2413340">
<ele>150.158997</ele>
<time>2013-04-26T05:03:59.000Z</time>
</trkpt>
<trkpt lat="32.7550000" lon="35.2411370">
<ele>149.822006</ele>
<time>2013-04-26T05:04:07.000Z</time>
</trkpt>
<trkpt lat="32.7550120" lon="35.2411030">
<ele>150.204010</ele>
<time>2013-04-26T05:04:21.000Z</time>
</trkpt>
<trkpt lat="32.7550270" lon="35.2410740">
<ele>150.334000</ele>
<time>2013-04-26T05:04:32.000Z</time>
</trkpt>
<trkpt lat="32.7550350" lon="35.2410250">
<ele>150.298004</ele>
<time>2013-04-26T05:04:45.000Z</time>
</trkpt>
<trkpt lat="32.7550590" lon="35.2409300">
<ele>151.679001</ele>
<time>2013-04-26T05:05:03.000Z</time>
</trkpt>
<trkpt lat="32.7551410" lon="35.2406690">
<ele>153.388000</ele>
<time>2013-04-26T05:05:15.000Z</time>
</trkpt>
<trkpt lat="32.7552330" lon="35.2403150">
<ele>154.127991</ele>
<time>2013-04-26T05:05:28.000Z</time>
</trkpt>
<trkpt lat="32.7553400" lon="35.2398570">
<ele>153.369995</ele>
<time>2013-04-26T05:05:40.000Z</time>
</trkpt>
<trkpt lat="32.7554500" lon="35.2393580">
<ele>153.544006</ele>
<time>2013-04-26T05:05:53.000Z</time>
</trkpt>
<trkpt lat="32.7555570" lon="35.2389340">
<ele>153.507004</ele>
<time>2013-04-26T05:06:04.000Z</time>
</trkpt>
<trkpt lat="32.7556920" lon="35.2384000">
<ele>154.056992</ele>
<time>2013-04-26T05:06:19.000Z</time>
</trkpt>
<trkpt lat="32.7558140" lon="35.2379050">
<ele>152.119995</ele>
<time>2013-04-26T05:06:29.000Z</time>
</trkpt>
<trkpt lat="32.7558920" lon="35.2376190">
<ele>150.337997</ele>
<time>2013-04-26T05:06:33.000Z</time>
</trkpt>
<trkpt lat="32.7560250" lon="35.2374150">
<ele>150.548996</ele>
<time>2013-04-26T05:06:38.000Z</time>
</trkpt>
<trkpt lat="32.7562050" lon="35.2373730">
<ele>151.412003</ele>
<time>2013-04-26T05:06:44.000Z</time>
</trkpt>
<trkpt lat="32.7565840" lon="35.2371240">
<ele>150.753006</ele>
<time>2013-04-26T05:06:56.000Z</time>
</trkpt>
<trkpt lat="32.7568670" lon="35.2372080">
<ele>150.860992</ele>
<time>2013-04-26T05:07:06.000Z</time>
</trkpt>
<trkpt lat="32.7570610" lon="35.2372490">
<ele>150.793991</ele>
<time>2013-04-26T05:07:16.000Z</time>
</trkpt>
<trkpt lat="32.7572310" lon="35.2372480">
<ele>151.475998</ele>
<time>2013-04-26T05:07:26.000Z</time>
</trkpt>
<trkpt lat="32.7574060" lon="35.2372090">
<ele>151.308990</ele>
<time>2013-04-26T05:07:37.000Z</time>
</trkpt>
<trkpt lat="32.7574290" lon="35.2371830">
<ele>151.547989</ele>
<time>2013-04-26T05:07:39.000Z</time>
</trkpt>
<trkpt lat="32.7574720" lon="35.2370040">
<ele>151.122009</ele>
<time>2013-04-26T05:07:52.000Z</time>
</trkpt>
<trkpt lat="32.7574770" lon="35.2369780">
<ele>151.276993</ele>
<time>2013-04-26T05:08:01.000Z</time>
</trkpt>
<trkpt lat="32.7574530" lon="35.2370160">
<ele>151.201996</ele>
<time>2013-04-26T05:08:22.000Z</time>
</trkpt>
<trkpt lat="32.7574510" lon="35.2371580">
<ele>152.268005</ele>
<time>2013-04-26T05:08:30.000Z</time>
</trkpt>
<trkpt lat="32.7574670" lon="35.2372800">
<ele>152.127991</ele>
<time>2013-04-26T05:08:36.000Z</time>
</trkpt>
<trkpt lat="32.7575310" lon="35.2373050">
<ele>153.466003</ele>
<time>2013-04-26T05:08:40.000Z</time>
</trkpt>
<trkpt lat="32.7577550" lon="35.2372540">
<ele>153.177002</ele>
<time>2013-04-26T05:08:52.000Z</time>
</trkpt>
<trkpt lat="32.7579320" lon="35.2370920">
<ele>155.641998</ele>
<time>2013-04-26T05:09:03.000Z</time>
</trkpt>
<trkpt lat="32.7579690" lon="35.2370770">
<ele>155.800003</ele>
<time>2013-04-26T05:09:05.000Z</time>
</trkpt>
<trkpt lat="32.7580520" lon="35.2371370">
<ele>156.292007</ele>
<time>2013-04-26T05:09:10.000Z</time>
</trkpt>
<trkpt lat="32.7581100" lon="35.2373020">
<ele>156.860992</ele>
<time>2013-04-26T05:09:17.000Z</time>
</trkpt>
<trkpt lat="32.7581270" lon="35.2375930">
<ele>157.006012</ele>
<time>2013-04-26T05:09:27.000Z</time>
</trkpt>
<trkpt lat="32.7582210" lon="35.2378480">
<ele>157.737000</ele>
<time>2013-04-26T05:09:37.000Z</time>
</trkpt>
<trkpt lat="32.7583390" lon="35.2380330">
<ele>160.188995</ele>
<time>2013-04-26T05:09:47.000Z</time>
</trkpt>
<trkpt lat="32.7583730" lon="35.2381610">
<ele>162.563995</ele>
<time>2013-04-26T05:09:53.000Z</time>
</trkpt>
<trkpt lat="32.7584110" lon="35.2383610">
<ele>163.026993</ele>
<time>2013-04-26T05:10:02.000Z</time>
</trkpt>
<trkpt lat="32.7585550" lon="35.2385740">
<ele>164.138000</ele>
<time>2013-04-26T05:10:13.000Z</time>
</trkpt>
<trkpt lat="32.7585880" lon="35.2385990">
<ele>164.272003</ele>
<time>2013-04-26T05:10:15.000Z</time>
</trkpt>
<trkpt lat="32.7586520" lon="35.2385640">
<ele>164.213013</ele>
<time>2013-04-26T05:10:19.000Z</time>
</trkpt>
<trkpt lat="32.7587900" lon="35.2383010">
<ele>164.432999</ele>
<time>2013-04-26T05:10:31.000Z</time>
</trkpt>
<trkpt lat="32.7589520" lon="35.2381920">
<ele>164.958984</ele>
<time>2013-04-26T05:10:40.000Z</time>
</trkpt>
<trkpt lat="32.7591450" lon="35.2381950">
<ele>167.434006</ele>
<time>2013-04-26T05:10:50.000Z</time>
</trkpt>
<trkpt lat="32.7593140" lon="35.2381970">
<ele>168.800003</ele>
<time>2013-04-26T05:11:00.000Z</time>
</trkpt>
<trkpt lat="32.7595300" lon="35.2382500">
<ele>169.449005</ele>
<time>2013-04-26T05:11:11.000Z</time>
</trkpt>
<trkpt lat="32.7597270" lon="35.2383690">
<ele>169.667999</ele>
<time>2013-04-26T05:11:21.000Z</time>
</trkpt>
<trkpt lat="32.7599220" lon="35.2385100">
<ele>170.647003</ele>
<time>2013-04-26T05:11:30.000Z</time>
</trkpt>
<trkpt lat="32.7600240" lon="35.2387290">
<ele>171.294998</ele>
<time>2013-04-26T05:11:39.000Z</time>
</trkpt>
<trkpt lat="32.7601010" lon="35.2387540">
<ele>171.050995</ele>
<time>2013-04-26T05:11:43.000Z</time>
</trkpt>
<trkpt lat="32.7601730" lon="35.2386770">
<ele>170.191986</ele>
<time>2013-04-26T05:11:47.000Z</time>
</trkpt>
<trkpt lat="32.7601880" lon="35.2385640">
<ele>169.903000</ele>
<time>2013-04-26T05:11:50.000Z</time>
</trkpt>
<trkpt lat="32.7602420" lon="35.2384810">
<ele>168.481995</ele>
<time>2013-04-26T05:11:52.000Z</time>
</trkpt>
<trkpt lat="32.7604060" lon="35.2384810">
<ele>167.179001</ele>
<time>2013-04-26T05:11:57.000Z</time>
</trkpt>
<trkpt lat="32.7607350" lon="35.2386160">
<ele>165.157013</ele>
<time>2013-04-26T05:12:06.000Z</time>
</trkpt>
<trkpt lat="32.7607750" lon="35.2386200">
<ele>165.487000</ele>
<time>2013-04-26T05:12:07.000Z</time>
</trkpt>
<trkpt lat="32.7609540" lon="35.2386770">
<ele>164.306992</ele>
<time>2013-04-26T05:12:11.000Z</time>
</trkpt>
<trkpt lat="32.7610450" lon="35.2386920">
<ele>163.908005</ele>
<time>2013-04-26T05:12:13.000Z</time>
</trkpt>
<trkpt lat="32.7613390" lon="35.2388380">
<ele>162.437012</ele>
<time>2013-04-26T05:12:21.000Z</time>
</trkpt>
<trkpt lat="32.7613830" lon="35.2389090">
<ele>163.104004</ele>
<time>2013-04-26T05:12:24.000Z</time>
</trkpt>
<trkpt lat="32.7616250" lon="35.2391260">
<ele>164.982010</ele>
<time>2013-04-26T05:12:36.000Z</time>
</trkpt>
<trkpt lat="32.7617860" lon="35.2393290">
<ele>165.147003</ele>
<time>2013-04-26T05:12:45.000Z</time>
</trkpt>
<trkpt lat="32.7619560" lon="35.2395620">
<ele>166.649994</ele>
<time>2013-04-26T05:12:54.000Z</time>
</trkpt>
<trkpt lat="32.7620320" lon="35.2396530">
<ele>167.813995</ele>
<time>2013-04-26T05:12:58.000Z</time>
</trkpt>
<trkpt lat="32.7621720" lon="35.2398330">
<ele>167.492004</ele>
<time>2013-04-26T05:13:06.000Z</time>
</trkpt>
<trkpt lat="32.7623690" lon="35.2401180">
<ele>167.921005</ele>
<time>2013-04-26T05:13:15.000Z</time>
</trkpt>
<trkpt lat="32.7624570" lon="35.2403350">
<ele>170.026993</ele>
<time>2013-04-26T05:13:22.000Z</time>
</trkpt>
<trkpt lat="32.7624880" lon="35.2403780">
<ele>168.513992</ele>
<time>2013-04-26T05:13:31.000Z</time>
</trkpt>
<trkpt lat="32.7625120" lon="35.2403940">
<ele>169.531998</ele>
<time>2013-04-26T05:13:51.000Z</time>
</trkpt>
<trkpt lat="32.7625340" lon="35.2403930">
<ele>168.991013</ele>
<time>2013-04-26T05:16:07.000Z</time>
</trkpt>
<trkpt lat="32.7625480" lon="35.2403930">
<ele>169.410995</ele>
<time>2013-04-26T05:17:01.000Z</time>
</trkpt>
<trkpt lat="32.7625410" lon="35.2404220">
<ele>169.587997</ele>
<time>2013-04-26T05:17:17.000Z</time>
</trkpt>
<trkpt lat="32.7626150" lon="35.2406090">
<ele>168.539001</ele>
<time>2013-04-26T05:17:26.000Z</time>
</trkpt>
<trkpt lat="32.7626620" lon="35.2407190">
<ele>167.864990</ele>
<time>2013-04-26T05:17:30.000Z</time>
</trkpt>
<trkpt lat="32.7627230" lon="35.2408970">
<ele>168.319992</ele>
<time>2013-04-26T05:17:36.000Z</time>
</trkpt>
<trkpt lat="32.7628450" lon="35.2411810">
<ele>167.395996</ele>
<time>2013-04-26T05:17:45.000Z</time>
</trkpt>
<trkpt lat="32.7629480" lon="35.2414030">
<ele>167.962006</ele>
<time>2013-04-26T05:17:52.000Z</time>
</trkpt>
<trkpt lat="32.7630870" lon="35.2416510">
<ele>166.494995</ele>
<time>2013-04-26T05:17:58.000Z</time>
</trkpt>
<trkpt lat="32.7631050" lon="35.2419790">
<ele>167.241989</ele>
<time>2013-04-26T05:18:07.000Z</time>
</trkpt>
<trkpt lat="32.7631110" lon="35.2422900">
<ele>167.617996</ele>
<time>2013-04-26T05:18:16.000Z</time>
</trkpt>
<trkpt lat="32.7631120" lon="35.2423200">
<ele>167.606995</ele>
<time>2013-04-26T05:18:17.000Z</time>
</trkpt>
<trkpt lat="32.7631340" lon="35.2426460">
<ele>167.013000</ele>
<time>2013-04-26T05:18:26.000Z</time>
</trkpt>
<trkpt lat="32.7630660" lon="35.2429000">
<ele>166.671997</ele>
<time>2013-04-26T05:18:33.000Z</time>
</trkpt>
<trkpt lat="32.7629950" lon="35.2432320">
<ele>164.572006</ele>
<time>2013-04-26T05:18:42.000Z</time>
</trkpt>
<trkpt lat="32.7630070" lon="35.2435040">
<ele>164.416992</ele>
<time>2013-04-26T05:18:48.000Z</time>
</trkpt>
<trkpt lat="32.7630730" lon="35.2437850">
<ele>162.363007</ele>
<time>2013-04-26T05:18:55.000Z</time>
</trkpt>
<trkpt lat="32.7631680" lon="35.2440680">
<ele>160.117996</ele>
<time>2013-04-26T05:19:04.000Z</time>
</trkpt>
<trkpt lat="32.7632430" lon="35.2443810">
<ele>158.542007</ele>
<time>2013-04-26T05:19:11.000Z</time>
</trkpt>
<trkpt lat="32.7632580" lon="35.2446350">
<ele>157.391006</ele>
<time>2013-04-26T05:19:17.000Z</time>
</trkpt>
<trkpt lat="32.7633390" lon="35.2448450">
<ele>157.103989</ele>
<time>2013-04-26T05:19:22.000Z</time>
</trkpt>
<trkpt lat="32.7636670" lon="35.2450350">
<ele>157.626999</ele>
<time>2013-04-26T05:19:32.000Z</time>
</trkpt>
<trkpt lat="32.7639340" lon="35.2451360">
<ele>159.227997</ele>
<time>2013-04-26T05:19:42.000Z</time>
</trkpt>
<trkpt lat="32.7642230" lon="35.2451050">
<ele>161.639008</ele>
<time>2013-04-26T05:19:53.000Z</time>
</trkpt>
<trkpt lat="32.7644330" lon="35.2452280">
<ele>163.900986</ele>
<time>2013-04-26T05:20:03.000Z</time>
</trkpt>
<trkpt lat="32.7645510" lon="35.2453660">
<ele>166.955002</ele>
<time>2013-04-26T05:20:12.000Z</time>
</trkpt>
<trkpt lat="32.7646060" lon="35.2455150">
<ele>169.149002</ele>
<time>2013-04-26T05:20:20.000Z</time>
</trkpt>
<trkpt lat="32.7646630" lon="35.2455860">
<ele>170.215988</ele>
<time>2013-04-26T05:20:25.000Z</time>
</trkpt>
<trkpt lat="32.7646640" lon="35.2457240">
<ele>172.193008</ele>
<time>2013-04-26T05:20:32.000Z</time>
</trkpt>
<trkpt lat="32.7647460" lon="35.2459230">
<ele>172.477005</ele>
<time>2013-04-26T05:20:42.000Z</time>
</trkpt>
<trkpt lat="32.7648550" lon="35.2461520">
<ele>174.743988</ele>
<time>2013-04-26T05:20:54.000Z</time>
</trkpt>
<trkpt lat="32.7649270" lon="35.2464120">
<ele>176.281998</ele>
<time>2013-04-26T05:21:06.000Z</time>
</trkpt>
<trkpt lat="32.7650250" lon="35.2467210">
<ele>176.575012</ele>
<time>2013-04-26T05:21:18.000Z</time>
</trkpt>
<trkpt lat="32.7651070" lon="35.2471210">
<ele>178.843002</ele>
<time>2013-04-26T05:21:33.000Z</time>
</trkpt>
<trkpt lat="32.7652240" lon="35.2473560">
<ele>179.627014</ele>
<time>2013-04-26T05:21:43.000Z</time>
</trkpt>
<trkpt lat="32.7654090" lon="35.2476140">
<ele>179.126999</ele>
<time>2013-04-26T05:21:53.000Z</time>
</trkpt>
<trkpt lat="32.7653110" lon="35.2478180">
<ele>179.161987</ele>
<time>2013-04-26T05:22:02.000Z</time>
</trkpt>
<trkpt lat="32.7653100" lon="35.2478350">
<ele>179.088013</ele>
<time>2013-04-26T05:22:19.000Z</time>
</trkpt>
<trkpt lat="32.7653140" lon="35.2478270">
<ele>178.946014</ele>
<time>2013-04-26T05:22:56.000Z</time>
</trkpt>
<trkpt lat="32.7653030" lon="35.2478250">
<ele>179.475006</ele>
<time>2013-04-26T05:24:18.000Z</time>
</trkpt>
<trkpt lat="32.7653050" lon="35.2478380">
<ele>178.890991</ele>
<time>2013-04-26T05:24:40.000Z</time>
</trkpt>
<trkpt lat="32.7653160" lon="35.2478450">
<ele>178.638000</ele>
<time>2013-04-26T05:25:13.000Z</time>
</trkpt>
<trkpt lat="32.7654020" lon="35.2479660">
<ele>177.895004</ele>
<time>2013-04-26T05:25:19.000Z</time>
</trkpt>
<trkpt lat="32.7655200" lon="35.2482630">
<ele>176.068985</ele>
<time>2013-04-26T05:25:25.000Z</time>
</trkpt>
<trkpt lat="32.7655450" lon="35.2483770">
<ele>176.067001</ele>
<time>2013-04-26T05:25:27.000Z</time>
</trkpt>
<trkpt lat="32.7655480" lon="35.2485970">
<ele>175.701996</ele>
<time>2013-04-26T05:25:31.000Z</time>
</trkpt>
<trkpt lat="32.7655350" lon="35.2489330">
<ele>174.891006</ele>
<time>2013-04-26T05:25:37.000Z</time>
</trkpt>
<trkpt lat="32.7655700" lon="35.2492690">
<ele>175.018005</ele>
<time>2013-04-26T05:25:44.000Z</time>
</trkpt>
<trkpt lat="32.7657170" lon="35.2493370">
<ele>172.996002</ele>
<time>2013-04-26T05:25:48.000Z</time>
</trkpt>
<trkpt lat="32.7659950" lon="35.2493680">
<ele>170.304993</ele>
<time>2013-04-26T05:25:53.000Z</time>
</trkpt>
<trkpt lat="32.7661370" lon="35.2495520">
<ele>170.086990</ele>
<time>2013-04-26T05:25:58.000Z</time>
</trkpt>
<trkpt lat="32.7663360" lon="35.2496260">
<ele>167.856995</ele>
<time>2013-04-26T05:26:03.000Z</time>
</trkpt>
<trkpt lat="32.7664350" lon="35.2495870">
<ele>166.630997</ele>
<time>2013-04-26T05:26:05.000Z</time>
</trkpt>
<trkpt lat="32.7665960" lon="35.2494640">
<ele>166.352005</ele>
<time>2013-04-26T05:26:10.000Z</time>
</trkpt>
<trkpt lat="32.7667490" lon="35.2496720">
<ele>165.561005</ele>
<time>2013-04-26T05:26:16.000Z</time>
</trkpt>
<trkpt lat="32.7668500" lon="35.2498970">
<ele>163.979996</ele>
<time>2013-04-26T05:26:22.000Z</time>
</trkpt>
<trkpt lat="32.7670670" lon="35.2501460">
<ele>162.312988</ele>
<time>2013-04-26T05:26:28.000Z</time>
</trkpt>
<trkpt lat="32.7671040" lon="35.2501990">
<ele>161.875992</ele>
<time>2013-04-26T05:26:29.000Z</time>
</trkpt>
<trkpt lat="32.7672130" lon="35.2504050">
<ele>161.809998</ele>
<time>2013-04-26T05:26:33.000Z</time>
</trkpt>
<trkpt lat="32.7673010" lon="35.2506130">
<ele>160.512009</ele>
<time>2013-04-26T05:26:37.000Z</time>
</trkpt>
<trkpt lat="32.7672980" lon="35.2508700">
<ele>160.589996</ele>
<time>2013-04-26T05:26:42.000Z</time>
</trkpt>
<trkpt lat="32.7672710" lon="35.2509520">
<ele>161.231003</ele>
<time>2013-04-26T05:26:44.000Z</time>
</trkpt>
<trkpt lat="32.7672390" lon="35.2510900">
<ele>160.727997</ele>
<time>2013-04-26T05:26:47.000Z</time>
</trkpt>
<trkpt lat="32.7671910" lon="35.2516140">
<ele>161.125000</ele>
<time>2013-04-26T05:26:57.000Z</time>
</trkpt>
<trkpt lat="32.7671950" lon="35.2517190">
<ele>160.901993</ele>
<time>2013-04-26T05:26:59.000Z</time>
</trkpt>
<trkpt lat="32.7672440" lon="35.2519120">
<ele>162.701996</ele>
<time>2013-04-26T05:27:03.000Z</time>
</trkpt>
<trkpt lat="32.7672800" lon="35.2521910">
<ele>162.380005</ele>
<time>2013-04-26T05:27:09.000Z</time>
</trkpt>
<trkpt lat="32.7673500" lon="35.2523370">
<ele>162.511993</ele>
<time>2013-04-26T05:27:13.000Z</time>
</trkpt>
<trkpt lat="32.7674570" lon="35.2524360">
<ele>160.784988</ele>
<time>2013-04-26T05:27:16.000Z</time>
</trkpt>
<trkpt lat="32.7675500" lon="35.2525590">
<ele>158.473007</ele>
<time>2013-04-26T05:27:20.000Z</time>
</trkpt>
<trkpt lat="32.7675440" lon="35.2525880">
<ele>158.250992</ele>
<time>2013-04-26T05:27:21.000Z</time>
</trkpt>
<trkpt lat="32.7674700" lon="35.2529300">
<ele>157.885010</ele>
<time>2013-04-26T05:27:32.000Z</time>
</trkpt>
<trkpt lat="32.7673420" lon="35.2532580">
<ele>158.098999</ele>
<time>2013-04-26T05:27:42.000Z</time>
</trkpt>
<trkpt lat="32.7671690" lon="35.2537330">
<ele>158.275009</ele>
<time>2013-04-26T05:27:54.000Z</time>
</trkpt>
<trkpt lat="32.7670260" lon="35.2541120">
<ele>159.264999</ele>
<time>2013-04-26T05:28:04.000Z</time>
</trkpt>
<trkpt lat="32.7667730" lon="35.2547030">
<ele>160.589996</ele>
<time>2013-04-26T05:28:17.000Z</time>
</trkpt>
<trkpt lat="32.7666510" lon="35.2550430">
<ele>160.022003</ele>
<time>2013-04-26T05:28:25.000Z</time>
</trkpt>
<trkpt lat="32.7665450" lon="35.2552510">
<ele>161.412003</ele>
<time>2013-04-26T05:28:30.000Z</time>
</trkpt>
<trkpt lat="32.7663250" lon="35.2557060">
<ele>163.031998</ele>
<time>2013-04-26T05:28:43.000Z</time>
</trkpt>
<trkpt lat="32.7661600" lon="35.2560780">
<ele>163.527008</ele>
<time>2013-04-26T05:28:54.000Z</time>
</trkpt>
<trkpt lat="32.7661490" lon="35.2561200">
<ele>162.934006</ele>
<time>2013-04-26T05:28:55.000Z</time>
</trkpt>
<trkpt lat="32.7659740" lon="35.2564260">
<ele>164.005005</ele>
<time>2013-04-26T05:29:04.000Z</time>
</trkpt>
<trkpt lat="32.7658650" lon="35.2567030">
<ele>163.361984</ele>
<time>2013-04-26T05:29:12.000Z</time>
</trkpt>
<trkpt lat="32.7656690" lon="35.2569990">
<ele>163.358994</ele>
<time>2013-04-26T05:29:22.000Z</time>
</trkpt>
<trkpt lat="32.7653850" lon="35.2572080">
<ele>166.040009</ele>
<time>2013-04-26T05:29:33.000Z</time>
</trkpt>
<trkpt lat="32.7651240" lon="35.2573840">
<ele>166.261002</ele>
<time>2013-04-26T05:29:43.000Z</time>
</trkpt>
<trkpt lat="32.7649660" lon="35.2577200">
<ele>166.330994</ele>
<time>2013-04-26T05:29:54.000Z</time>
</trkpt>
<trkpt lat="32.7649190" lon="35.2581100">
<ele>166.515991</ele>
<time>2013-04-26T05:30:06.000Z</time>
</trkpt>
<trkpt lat="32.7647840" lon="35.2585240">
<ele>167.500015</ele>
<time>2013-04-26T05:30:17.000Z</time>
</trkpt>
<trkpt lat="32.7645370" lon="35.2589850">
<ele>167.954010</ele>
<time>2013-04-26T05:30:31.000Z</time>
</trkpt>
<trkpt lat="32.7644110" lon="35.2591790">
<ele>168.885010</ele>
<time>2013-04-26T05:30:39.000Z</time>
</trkpt>
<trkpt lat="32.7642700" lon="35.2593660">
<ele>169.421997</ele>
<time>2013-04-26T05:30:47.000Z</time>
</trkpt>
<trkpt lat="32.7640330" lon="35.2596120">
<ele>169.619995</ele>
<time>2013-04-26T05:30:58.000Z</time>
</trkpt>
<trkpt lat="32.7638510" lon="35.2598650">
<ele>172.313004</ele>
<time>2013-04-26T05:31:07.000Z</time>
</trkpt>
<trkpt lat="32.7635760" lon="35.2601250">
<ele>174.335999</ele>
<time>2013-04-26T05:31:19.000Z</time>
</trkpt>
<trkpt lat="32.7633440" lon="35.2601860">
<ele>177.352005</ele>
<time>2013-04-26T05:31:28.000Z</time>
</trkpt>
<trkpt lat="32.7633300" lon="35.2601900">
<ele>177.418991</ele>
<time>2013-04-26T05:31:29.000Z</time>
</trkpt>
<trkpt lat="32.7632290" lon="35.2602750">
<ele>176.405014</ele>
<time>2013-04-26T05:31:34.000Z</time>
</trkpt>
<trkpt lat="32.7629810" lon="35.2603660">
<ele>176.514008</ele>
<time>2013-04-26T05:31:42.000Z</time>
</trkpt>
<trkpt lat="32.7629570" lon="35.2603890">
<ele>176.621002</ele>
<time>2013-04-26T05:31:43.000Z</time>
</trkpt>
<trkpt lat="32.7626750" lon="35.2605640">
<ele>177.252014</ele>
<time>2013-04-26T05:31:51.000Z</time>
</trkpt>
<trkpt lat="32.7626100" lon="35.2606280">
<ele>178.694000</ele>
<time>2013-04-26T05:31:54.000Z</time>
</trkpt>
<trkpt lat="32.7624990" lon="35.2608570">
<ele>180.414993</ele>
<time>2013-04-26T05:32:03.000Z</time>
</trkpt>
<trkpt lat="32.7625050" lon="35.2609010">
<ele>181.121002</ele>
<time>2013-04-26T05:32:05.000Z</time>
</trkpt>
<trkpt lat="32.7626150" lon="35.2610530">
<ele>178.787003</ele>
<time>2013-04-26T05:32:12.000Z</time>
</trkpt>
<trkpt lat="32.7628300" lon="35.2613000">
<ele>179.945999</ele>
<time>2013-04-26T05:32:22.000Z</time>
</trkpt>
<trkpt lat="32.7628510" lon="35.2613270">
<ele>180.192001</ele>
<time>2013-04-26T05:32:30.000Z</time>
</trkpt>
<trkpt lat="32.7628550" lon="35.2613400">
<ele>179.235001</ele>
<time>2013-04-26T05:32:48.000Z</time>
</trkpt>
<trkpt lat="32.7628810" lon="35.2614120">
<ele>178.944000</ele>
<time>2013-04-26T05:33:01.000Z</time>
</trkpt>
<trkpt lat="32.7628990" lon="35.2614410">
<ele>179.709991</ele>
<time>2013-04-26T05:33:15.000Z</time>
</trkpt>
<trkpt lat="32.7629140" lon="35.2614630">
<ele>179.304993</ele>
<time>2013-04-26T05:33:26.000Z</time>
</trkpt>
<trkpt lat="32.7630530" lon="35.2616130">
<ele>178.816010</ele>
<time>2013-04-26T05:33:35.000Z</time>
</trkpt>
<trkpt lat="32.7632000" lon="35.2618490">
<ele>180.328995</ele>
<time>2013-04-26T05:33:44.000Z</time>
</trkpt>
<trkpt lat="32.7633530" lon="35.2621650">
<ele>180.069016</ele>
<time>2013-04-26T05:33:55.000Z</time>
</trkpt>
<trkpt lat="32.7634360" lon="35.2623910">
<ele>181.224014</ele>
<time>2013-04-26T05:34:02.000Z</time>
</trkpt>
<trkpt lat="32.7635770" lon="35.2626290">
<ele>182.126007</ele>
<time>2013-04-26T05:34:12.000Z</time>
</trkpt>
<trkpt lat="32.7636390" lon="35.2626850">
<ele>182.897003</ele>
<time>2013-04-26T05:34:15.000Z</time>
</trkpt>
<trkpt lat="32.7637790" lon="35.2626600">
<ele>182.245987</ele>
<time>2013-04-26T05:34:20.000Z</time>
</trkpt>
<trkpt lat="32.7638120" lon="35.2627750">
<ele>183.401993</ele>
<time>2013-04-26T05:34:26.000Z</time>
</trkpt>
<trkpt lat="32.7637150" lon="35.2629840">
<ele>186.451004</ele>
<time>2013-04-26T05:34:37.000Z</time>
</trkpt>
<trkpt lat="32.7636000" lon="35.2631230">
<ele>186.296997</ele>
<time>2013-04-26T05:34:48.000Z</time>
</trkpt>
<trkpt lat="32.7634930" lon="35.2632930">
<ele>187.785004</ele>
<time>2013-04-26T05:34:57.000Z</time>
</trkpt>
<trkpt lat="32.7633710" lon="35.2633810">
<ele>188.097000</ele>
<time>2013-04-26T05:35:04.000Z</time>
</trkpt>
<trkpt lat="32.7632880" lon="35.2632920">
<ele>188.947998</ele>
<time>2013-04-26T05:35:11.000Z</time>
</trkpt>
<trkpt lat="32.7632260" lon="35.2630780">
<ele>189.257004</ele>
<time>2013-04-26T05:35:21.000Z</time>
</trkpt>
<trkpt lat="32.7631960" lon="35.2630680">
<ele>189.042984</ele>
<time>2013-04-26T05:35:24.000Z</time>
</trkpt>
<trkpt lat="32.7631750" lon="35.2631610">
<ele>189.768997</ele>
<time>2013-04-26T05:35:30.000Z</time>
</trkpt>
<trkpt lat="32.7631760" lon="35.2634660">
<ele>190.904999</ele>
<time>2013-04-26T05:35:42.000Z</time>
</trkpt>
<trkpt lat="32.7632030" lon="35.2637000">
<ele>192.719009</ele>
<time>2013-04-26T05:35:52.000Z</time>
</trkpt>
<trkpt lat="32.7631980" lon="35.2638870">
<ele>193.959015</ele>
<time>2013-04-26T05:36:00.000Z</time>
</trkpt>
<trkpt lat="32.7633080" lon="35.2640370">
<ele>195.670990</ele>
<time>2013-04-26T05:36:11.000Z</time>
</trkpt>
<trkpt lat="32.7634130" lon="35.2640290">
<ele>195.960007</ele>
<time>2013-04-26T05:36:18.000Z</time>
</trkpt>
<trkpt lat="32.7634780" lon="35.2638740">
<ele>194.848999</ele>
<time>2013-04-26T05:36:24.000Z</time>
</trkpt>
<trkpt lat="32.7635920" lon="35.2638500">
<ele>195.799011</ele>
<time>2013-04-26T05:36:32.000Z</time>
</trkpt>
<trkpt lat="32.7635740" lon="35.2639050">
<ele>197.161987</ele>
<time>2013-04-26T05:36:36.000Z</time>
</trkpt>
<trkpt lat="32.7635120" lon="35.2640980">
<ele>198.822006</ele>
<time>2013-04-26T05:36:46.000Z</time>
</trkpt>
<trkpt lat="32.7634330" lon="35.2642260">
<ele>200.217987</ele>
<time>2013-04-26T05:36:55.000Z</time>
</trkpt>
<trkpt lat="32.7633990" lon="35.2644140">
<ele>201.781006</ele>
<time>2013-04-26T05:37:06.000Z</time>
</trkpt>
<trkpt lat="32.7633980" lon="35.2645810">
<ele>203.131012</ele>
<time>2013-04-26T05:37:15.000Z</time>
</trkpt>
<trkpt lat="32.7633910" lon="35.2646580">
<ele>204.591995</ele>
<time>2013-04-26T05:37:20.000Z</time>
</trkpt>
<trkpt lat="32.7633470" lon="35.2646970">
<ele>204.578995</ele>
<time>2013-04-26T05:37:25.000Z</time>
</trkpt>
<trkpt lat="32.7632760" lon="35.2647700">
<ele>204.895996</ele>
<time>2013-04-26T05:37:31.000Z</time>
</trkpt>
<trkpt lat="32.7631720" lon="35.2648260">
<ele>204.875992</ele>
<time>2013-04-26T05:37:37.000Z</time>
</trkpt>
<trkpt lat="32.7631010" lon="35.2649520">
<ele>205.936996</ele>
<time>2013-04-26T05:37:46.000Z</time>
</trkpt>
<trkpt lat="32.7629790" lon="35.2650220">
<ele>205.486008</ele>
<time>2013-04-26T05:37:54.000Z</time>
</trkpt>
<trkpt lat="32.7629670" lon="35.2651470">
<ele>206.309006</ele>
<time>2013-04-26T05:38:00.000Z</time>
</trkpt>
<trkpt lat="32.7629240" lon="35.2653150">
<ele>208.272995</ele>
<time>2013-04-26T05:38:10.000Z</time>
</trkpt>
<trkpt lat="32.7628820" lon="35.2654040">
<ele>208.164001</ele>
<time>2013-04-26T05:38:17.000Z</time>
</trkpt>
<trkpt lat="32.7628200" lon="35.2655140">
<ele>208.787003</ele>
<time>2013-04-26T05:38:26.000Z</time>
</trkpt>
<trkpt lat="32.7627540" lon="35.2655370">
<ele>210.046997</ele>
<time>2013-04-26T05:38:31.000Z</time>
</trkpt>
<trkpt lat="32.7627280" lon="35.2655270">
<ele>209.673996</ele>
<time>2013-04-26T05:38:33.000Z</time>
</trkpt>
<trkpt lat="32.7626620" lon="35.2654370">
<ele>211.113998</ele>
<time>2013-04-26T05:38:42.000Z</time>
</trkpt>
<trkpt lat="32.7626360" lon="35.2655730">
<ele>211.262009</ele>
<time>2013-04-26T05:38:48.000Z</time>
</trkpt>
<trkpt lat="32.7626240" lon="35.2655860">
<ele>212.259995</ele>
<time>2013-04-26T05:38:58.000Z</time>
</trkpt>
<trkpt lat="32.7626180" lon="35.2655980">
<ele>211.725998</ele>
<time>2013-04-26T05:39:17.000Z</time>
</trkpt>
<trkpt lat="32.7626170" lon="35.2655990">
<ele>211.309998</ele>
<time>2013-04-26T05:39:35.000Z</time>
</trkpt>
<trkpt lat="32.7626140" lon="35.2656180">
<ele>211.677994</ele>
<time>2013-04-26T05:40:13.000Z</time>
</trkpt>
<trkpt lat="32.7626100" lon="35.2656280">
<ele>211.161987</ele>
<time>2013-04-26T05:40:44.000Z</time>
</trkpt>
<trkpt lat="32.7626290" lon="35.2655740">
<ele>210.908005</ele>
<time>2013-04-26T05:41:43.000Z</time>
</trkpt>
<trkpt lat="32.7626180" lon="35.2655860">
<ele>211.356995</ele>
<time>2013-04-26T05:42:35.000Z</time>
</trkpt>
<trkpt lat="32.7626170" lon="35.2656000">
<ele>211.319992</ele>
<time>2013-04-26T05:42:49.000Z</time>
</trkpt>
<trkpt lat="32.7625840" lon="35.2658050">
<ele>211.203995</ele>
<time>2013-04-26T05:43:00.000Z</time>
</trkpt>
<trkpt lat="32.7625420" lon="35.2661030">
<ele>208.802994</ele>
<time>2013-04-26T05:43:09.000Z</time>
</trkpt>
<trkpt lat="32.7625420" lon="35.2661430">
<ele>208.230988</ele>
<time>2013-04-26T05:43:10.000Z</time>
</trkpt>
<trkpt lat="32.7624970" lon="35.2662460">
<ele>210.341003</ele>
<time>2013-04-26T05:43:13.000Z</time>
</trkpt>
<trkpt lat="32.7623760" lon="35.2664390">
<ele>210.524002</ele>
<time>2013-04-26T05:43:22.000Z</time>
</trkpt>
<trkpt lat="32.7622250" lon="35.2666740">
<ele>211.914001</ele>
<time>2013-04-26T05:43:30.000Z</time>
</trkpt>
<trkpt lat="32.7620850" lon="35.2669120">
<ele>210.604004</ele>
<time>2013-04-26T05:43:39.000Z</time>
</trkpt>
<trkpt lat="32.7619240" lon="35.2671410">
<ele>209.904007</ele>
<time>2013-04-26T05:43:47.000Z</time>
</trkpt>
<trkpt lat="32.7617630" lon="35.2672610">
<ele>211.679001</ele>
<time>2013-04-26T05:43:56.000Z</time>
</trkpt>
<trkpt lat="32.7616920" lon="35.2673170">
<ele>211.806000</ele>
<time>2013-04-26T05:43:59.000Z</time>
</trkpt>
<trkpt lat="32.7616070" lon="35.2674270">
<ele>209.256012</ele>
<time>2013-04-26T05:44:03.000Z</time>
</trkpt>
<trkpt lat="32.7615840" lon="35.2674520">
<ele>209.112000</ele>
<time>2013-04-26T05:44:04.000Z</time>
</trkpt>
<trkpt lat="32.7613560" lon="35.2676450">
<ele>208.751999</ele>
<time>2013-04-26T05:44:12.000Z</time>
</trkpt>
<trkpt lat="32.7612340" lon="35.2677330">
<ele>207.257996</ele>
<time>2013-04-26T05:44:16.000Z</time>
</trkpt>
<trkpt lat="32.7610010" lon="35.2678780">
<ele>208.089996</ele>
<time>2013-04-26T05:44:23.000Z</time>
</trkpt>
<trkpt lat="32.7606620" lon="35.2679720">
<ele>206.582993</ele>
<time>2013-04-26T05:44:33.000Z</time>
</trkpt>
<trkpt lat="32.7605740" lon="35.2680090">
<ele>205.938004</ele>
<time>2013-04-26T05:44:35.000Z</time>
</trkpt>
<trkpt lat="32.7603400" lon="35.2680070">
<ele>208.378998</ele>
<time>2013-04-26T05:44:42.000Z</time>
</trkpt>
<trkpt lat="32.7600250" lon="35.2679180">
<ele>210.922989</ele>
<time>2013-04-26T05:44:52.000Z</time>
</trkpt>
<trkpt lat="32.7600530" lon="35.2678500">
<ele>211.341995</ele>
<time>2013-04-26T05:44:57.000Z</time>
</trkpt>
<trkpt lat="32.7602990" lon="35.2678570">
<ele>213.062988</ele>
<time>2013-04-26T05:45:06.000Z</time>
</trkpt>
<trkpt lat="32.7602610" lon="35.2677170">
<ele>216.061005</ele>
<time>2013-04-26T05:45:15.000Z</time>
</trkpt>
<trkpt lat="32.7601700" lon="35.2676670">
<ele>217.357010</ele>
<time>2013-04-26T05:45:22.000Z</time>
</trkpt>
<trkpt lat="32.7601210" lon="35.2676640">
<ele>217.358994</ele>
<time>2013-04-26T05:45:24.000Z</time>
</trkpt>
<trkpt lat="32.7599550" lon="35.2676450">
<ele>216.944000</ele>
<time>2013-04-26T05:45:33.000Z</time>
</trkpt>
<trkpt lat="32.7599250" lon="35.2676020">
<ele>217.209000</ele>
<time>2013-04-26T05:45:48.000Z</time>
</trkpt>
<trkpt lat="32.7598800" lon="35.2676070">
<ele>217.975998</ele>
<time>2013-04-26T05:46:06.000Z</time>
</trkpt>
<trkpt lat="32.7598660" lon="35.2676420">
<ele>218.147003</ele>
<time>2013-04-26T05:46:54.000Z</time>
</trkpt>
<trkpt lat="32.7598540" lon="35.2675830">
<ele>218.631989</ele>
<time>2013-04-26T05:47:42.000Z</time>
</trkpt>
<trkpt lat="32.7596870" lon="35.2675690">
<ele>217.402008</ele>
<time>2013-04-26T05:47:50.000Z</time>
</trkpt>
<trkpt lat="32.7596460" lon="35.2675560">
<ele>218.792007</ele>
<time>2013-04-26T05:47:52.000Z</time>
</trkpt>
<trkpt lat="32.7595160" lon="35.2675000">
<ele>220.238998</ele>
<time>2013-04-26T05:47:59.000Z</time>
</trkpt>
<trkpt lat="32.7593150" lon="35.2673660">
<ele>222.955002</ele>
<time>2013-04-26T05:48:09.000Z</time>
</trkpt>
<trkpt lat="32.7591340" lon="35.2672930">
<ele>223.434998</ele>
<time>2013-04-26T05:48:17.000Z</time>
</trkpt>
<trkpt lat="32.7588770" lon="35.2671840">
<ele>224.194000</ele>
<time>2013-04-26T05:48:27.000Z</time>
</trkpt>
<trkpt lat="32.7586850" lon="35.2671170">
<ele>223.837997</ele>
<time>2013-04-26T05:48:35.000Z</time>
</trkpt>
<trkpt lat="32.7585450" lon="35.2669380">
<ele>225.365997</ele>
<time>2013-04-26T05:48:43.000Z</time>
</trkpt>
<trkpt lat="32.7584240" lon="35.2667800">
<ele>226.690002</ele>
<time>2013-04-26T05:48:51.000Z</time>
</trkpt>
<trkpt lat="32.7584120" lon="35.2666700">
<ele>228.833008</ele>
<time>2013-04-26T05:48:55.000Z</time>
</trkpt>
<trkpt lat="32.7583200" lon="35.2664210">
<ele>229.769989</ele>
<time>2013-04-26T05:49:05.000Z</time>
</trkpt>
<trkpt lat="32.7582340" lon="35.2662080">
<ele>231.145996</ele>
<time>2013-04-26T05:49:14.000Z</time>
</trkpt>
<trkpt lat="32.7582270" lon="35.2661840">
<ele>232.742004</ele>
<time>2013-04-26T05:49:15.000Z</time>
</trkpt>
<trkpt lat="32.7582280" lon="35.2661050">
<ele>234.896011</ele>
<time>2013-04-26T05:49:19.000Z</time>
</trkpt>
<trkpt lat="32.7581070" lon="35.2659400">
<ele>234.906998</ele>
<time>2013-04-26T05:49:27.000Z</time>
</trkpt>
<trkpt lat="32.7579860" lon="35.2658590">
<ele>233.959000</ele>
<time>2013-04-26T05:49:34.000Z</time>
</trkpt>
<trkpt lat="32.7578870" lon="35.2657760">
<ele>235.511002</ele>
<time>2013-04-26T05:49:38.000Z</time>
</trkpt>
<trkpt lat="32.7576800" lon="35.2656740">
<ele>236.574997</ele>
<time>2013-04-26T05:49:47.000Z</time>
</trkpt>
<trkpt lat="32.7575350" lon="35.2655770">
<ele>236.425995</ele>
<time>2013-04-26T05:49:56.000Z</time>
</trkpt>
<trkpt lat="32.7575360" lon="35.2655770">
<ele>235.968002</ele>
<time>2013-04-26T05:50:28.000Z</time>
</trkpt>
<trkpt lat="32.7575350" lon="35.2655790">
<ele>236.130997</ele>
<time>2013-04-26T05:51:14.000Z</time>
</trkpt>
<trkpt lat="32.7573930" lon="35.2654890">
<ele>235.720993</ele>
<time>2013-04-26T05:51:22.000Z</time>
</trkpt>
<trkpt lat="32.7573310" lon="35.2654290">
<ele>236.016998</ele>
<time>2013-04-26T05:51:25.000Z</time>
</trkpt>
<trkpt lat="32.7571900" lon="35.2651860">
<ele>237.052994</ele>
<time>2013-04-26T05:51:35.000Z</time>
</trkpt>
<trkpt lat="32.7570450" lon="35.2649930">
<ele>236.639999</ele>
<time>2013-04-26T05:51:43.000Z</time>
</trkpt>
<trkpt lat="32.7569760" lon="35.2649100">
<ele>234.472000</ele>
<time>2013-04-26T05:51:46.000Z</time>
</trkpt>
<trkpt lat="32.7569280" lon="35.2649470">
<ele>233.257004</ele>
<time>2013-04-26T05:51:50.000Z</time>
</trkpt>
<trkpt lat="32.7569240" lon="35.2651890">
<ele>231.824997</ele>
<time>2013-04-26T05:51:56.000Z</time>
</trkpt>
<trkpt lat="32.7570480" lon="35.2654920">
<ele>228.841003</ele>
<time>2013-04-26T05:52:04.000Z</time>
</trkpt>
<trkpt lat="32.7571200" lon="35.2656780">
<ele>227.981003</ele>
<time>2013-04-26T05:52:09.000Z</time>
</trkpt>
<trkpt lat="32.7571220" lon="35.2658000">
<ele>226.979004</ele>
<time>2013-04-26T05:52:14.000Z</time>
</trkpt>
<trkpt lat="32.7571610" lon="35.2660080">
<ele>223.036011</ele>
<time>2013-04-26T05:52:22.000Z</time>
</trkpt>
<trkpt lat="32.7571590" lon="35.2661080">
<ele>219.437012</ele>
<time>2013-04-26T05:52:25.000Z</time>
</trkpt>
<trkpt lat="32.7571630" lon="35.2661820">
<ele>218.144989</ele>
<time>2013-04-26T05:52:27.000Z</time>
</trkpt>
<trkpt lat="32.7572300" lon="35.2663070">
<ele>217.214005</ele>
<time>2013-04-26T05:52:32.000Z</time>
</trkpt>
<trkpt lat="32.7573190" lon="35.2663250">
<ele>217.852005</ele>
<time>2013-04-26T05:52:36.000Z</time>
</trkpt>
<trkpt lat="32.7574020" lon="35.2663440">
<ele>217.646988</ele>
<time>2013-04-26T05:52:40.000Z</time>
</trkpt>
<trkpt lat="32.7575150" lon="35.2664590">
<ele>215.611008</ele>
<time>2013-04-26T05:52:47.000Z</time>
</trkpt>
<trkpt lat="32.7575230" lon="35.2665750">
<ele>211.847000</ele>
<time>2013-04-26T05:52:51.000Z</time>
</trkpt>
<trkpt lat="32.7575300" lon="35.2666050">
<ele>211.907990</ele>
<time>2013-04-26T05:52:52.000Z</time>
</trkpt>
<trkpt lat="32.7575760" lon="35.2667260">
<ele>210.204010</ele>
<time>2013-04-26T05:52:55.000Z</time>
</trkpt>
<trkpt lat="32.7576260" lon="35.2668560">
<ele>210.781998</ele>
<time>2013-04-26T05:52:59.000Z</time>
</trkpt>
<trkpt lat="32.7576360" lon="35.2670150">
<ele>209.270996</ele>
<time>2013-04-26T05:53:08.000Z</time>
</trkpt>
<trkpt lat="32.7575910" lon="35.2670720">
<ele>207.415009</ele>
<time>2013-04-26T05:53:19.000Z</time>
</trkpt>
<trkpt lat="32.7576120" lon="35.2671550">
<ele>207.374008</ele>
<time>2013-04-26T05:53:26.000Z</time>
</trkpt>
<trkpt lat="32.7576640" lon="35.2671960">
<ele>206.946991</ele>
<time>2013-04-26T05:53:35.000Z</time>
</trkpt>
<trkpt lat="32.7576800" lon="35.2673850">
<ele>204.199997</ele>
<time>2013-04-26T05:53:44.000Z</time>
</trkpt>
<trkpt lat="32.7577660" lon="35.2675510">
<ele>202.852005</ele>
<time>2013-04-26T05:53:50.000Z</time>
</trkpt>
<trkpt lat="32.7578130" lon="35.2676280">
<ele>201.838013</ele>
<time>2013-04-26T05:53:52.000Z</time>
</trkpt>
<trkpt lat="32.7579150" lon="35.2678010">
<ele>200.901001</ele>
<time>2013-04-26T05:53:59.000Z</time>
</trkpt>
<trkpt lat="32.7580090" lon="35.2678330">
<ele>201.018005</ele>
<time>2013-04-26T05:54:03.000Z</time>
</trkpt>
<trkpt lat="32.7580840" lon="35.2678780">
<ele>200.180008</ele>
<time>2013-04-26T05:54:07.000Z</time>
</trkpt>
<trkpt lat="32.7581090" lon="35.2678860">
<ele>200.176010</ele>
<time>2013-04-26T05:54:08.000Z</time>
</trkpt>
<trkpt lat="32.7580990" lon="35.2679970">
<ele>199.317001</ele>
<time>2013-04-26T05:54:13.000Z</time>
</trkpt>
<trkpt lat="32.7581350" lon="35.2680720">
<ele>198.726990</ele>
<time>2013-04-26T05:54:16.000Z</time>
</trkpt>
<trkpt lat="32.7582590" lon="35.2681600">
<ele>198.069000</ele>
<time>2013-04-26T05:54:20.000Z</time>
</trkpt>
<trkpt lat="32.7584120" lon="35.2681990">
<ele>197.763000</ele>
<time>2013-04-26T05:54:27.000Z</time>
</trkpt>
<trkpt lat="32.7586290" lon="35.2683210">
<ele>197.858994</ele>
<time>2013-04-26T05:54:35.000Z</time>
</trkpt>
<trkpt lat="32.7588390" lon="35.2683950">
<ele>197.428986</ele>
<time>2013-04-26T05:54:43.000Z</time>
</trkpt>
<trkpt lat="32.7589470" lon="35.2685270">
<ele>196.075989</ele>
<time>2013-04-26T05:54:49.000Z</time>
</trkpt>
<trkpt lat="32.7589500" lon="35.2686160">
<ele>196.038986</ele>
<time>2013-04-26T05:54:57.000Z</time>
</trkpt>
<trkpt lat="32.7589450" lon="35.2686300">
<ele>195.662994</ele>
<time>2013-04-26T05:55:12.000Z</time>
</trkpt>
<trkpt lat="32.7590160" lon="35.2688170">
<ele>194.348007</ele>
<time>2013-04-26T05:55:19.000Z</time>
</trkpt>
<trkpt lat="32.7590810" lon="35.2693070">
<ele>194.446991</ele>
<time>2013-04-26T05:55:32.000Z</time>
</trkpt>
<trkpt lat="32.7590440" lon="35.2696160">
<ele>194.597000</ele>
<time>2013-04-26T05:55:41.000Z</time>
</trkpt>
<trkpt lat="32.7591610" lon="35.2700000">
<ele>196.667999</ele>
<time>2013-04-26T05:55:52.000Z</time>
</trkpt>
<trkpt lat="32.7593350" lon="35.2702120">
<ele>197.108994</ele>
<time>2013-04-26T05:56:01.000Z</time>
</trkpt>
<trkpt lat="32.7597130" lon="35.2705170">
<ele>198.611008</ele>
<time>2013-04-26T05:56:15.000Z</time>
</trkpt>
<trkpt lat="32.7601140" lon="35.2707150">
<ele>196.738998</ele>
<time>2013-04-26T05:56:27.000Z</time>
</trkpt>
<trkpt lat="32.7604410" lon="35.2708270">
<ele>196.854996</ele>
<time>2013-04-26T05:56:37.000Z</time>
</trkpt>
<trkpt lat="32.7605070" lon="35.2708510">
<ele>195.572006</ele>
<time>2013-04-26T05:56:39.000Z</time>
</trkpt>
<trkpt lat="32.7607230" lon="35.2709940">
<ele>194.112000</ele>
<time>2013-04-26T05:56:45.000Z</time>
</trkpt>
<trkpt lat="32.7609650" lon="35.2710640">
<ele>193.345001</ele>
<time>2013-04-26T05:56:50.000Z</time>
</trkpt>
<trkpt lat="32.7610590" lon="35.2710840">
<ele>193.154999</ele>
<time>2013-04-26T05:56:52.000Z</time>
</trkpt>
<trkpt lat="32.7613280" lon="35.2712190">
<ele>192.475998</ele>
<time>2013-04-26T05:57:00.000Z</time>
</trkpt>
<trkpt lat="32.7614560" lon="35.2711800">
<ele>191.712006</ele>
<time>2013-04-26T05:57:04.000Z</time>
</trkpt>
<trkpt lat="32.7618190" lon="35.2710450">
<ele>192.335999</ele>
<time>2013-04-26T05:57:14.000Z</time>
</trkpt>
<trkpt lat="32.7622620" lon="35.2708570">
<ele>191.227997</ele>
<time>2013-04-26T05:57:28.000Z</time>
</trkpt>
<trkpt lat="32.7622930" lon="35.2708350">
<ele>190.964996</ele>
<time>2013-04-26T05:57:29.000Z</time>
</trkpt>
<trkpt lat="32.7624760" lon="35.2707670">
<ele>192.222000</ele>
<time>2013-04-26T05:57:35.000Z</time>
</trkpt>
<trkpt lat="32.7626620" lon="35.2707320">
<ele>193.682999</ele>
<time>2013-04-26T05:57:42.000Z</time>
</trkpt>
<trkpt lat="32.7630100" lon="35.2705900">
<ele>195.738998</ele>
<time>2013-04-26T05:57:55.000Z</time>
</trkpt>
<trkpt lat="32.7632230" lon="35.2704790">
<ele>195.410995</ele>
<time>2013-04-26T05:58:02.000Z</time>
</trkpt>
<trkpt lat="32.7634610" lon="35.2704290">
<ele>193.337997</ele>
<time>2013-04-26T05:58:08.000Z</time>
</trkpt>
<trkpt lat="32.7635010" lon="35.2704340">
<ele>193.074005</ele>
<time>2013-04-26T05:58:09.000Z</time>
</trkpt>
<trkpt lat="32.7636420" lon="35.2704430">
<ele>192.309998</ele>
<time>2013-04-26T05:58:13.000Z</time>
</trkpt>
<trkpt lat="32.7638890" lon="35.2705230">
<ele>191.409988</ele>
<time>2013-04-26T05:58:20.000Z</time>
</trkpt>
<trkpt lat="32.7639950" lon="35.2705850">
<ele>191.142990</ele>
<time>2013-04-26T05:58:24.000Z</time>
</trkpt>
<trkpt lat="32.7641220" lon="35.2707620">
<ele>190.319000</ele>
<time>2013-04-26T05:58:31.000Z</time>
</trkpt>
<trkpt lat="32.7642290" lon="35.2709990">
<ele>186.826996</ele>
<time>2013-04-26T05:58:37.000Z</time>
</trkpt>
<trkpt lat="32.7642490" lon="35.2711170">
<ele>185.840012</ele>
<time>2013-04-26T05:58:40.000Z</time>
</trkpt>
<trkpt lat="32.7643390" lon="35.2712280">
<ele>184.550003</ele>
<time>2013-04-26T05:58:43.000Z</time>
</trkpt>
<trkpt lat="32.7644170" lon="35.2714390">
<ele>183.003006</ele>
<time>2013-04-26T05:58:48.000Z</time>
</trkpt>
<trkpt lat="32.7644240" lon="35.2719740">
<ele>182.662003</ele>
<time>2013-04-26T05:59:00.000Z</time>
</trkpt>
<trkpt lat="32.7647330" lon="35.2722830">
<ele>181.639999</ele>
<time>2013-04-26T05:59:11.000Z</time>
</trkpt>
<trkpt lat="32.7649740" lon="35.2724270">
<ele>181.738007</ele>
<time>2013-04-26T05:59:18.000Z</time>
</trkpt>
<trkpt lat="32.7653000" lon="35.2726550">
<ele>180.931000</ele>
<time>2013-04-26T05:59:29.000Z</time>
</trkpt>
<trkpt lat="32.7656400" lon="35.2728540">
<ele>180.065002</ele>
<time>2013-04-26T05:59:39.000Z</time>
</trkpt>
<trkpt lat="32.7660590" lon="35.2728470">
<ele>179.716003</ele>
<time>2013-04-26T05:59:50.000Z</time>
</trkpt>
<trkpt lat="32.7664200" lon="35.2727240">
<ele>179.673996</ele>
<time>2013-04-26T06:00:00.000Z</time>
</trkpt>
<trkpt lat="32.7666990" lon="35.2728510">
<ele>180.360001</ele>
<time>2013-04-26T06:00:09.000Z</time>
</trkpt>
<trkpt lat="32.7669500" lon="35.2729150">
<ele>180.884995</ele>
<time>2013-04-26T06:00:17.000Z</time>
</trkpt>
<trkpt lat="32.7672070" lon="35.2730510">
<ele>181.329987</ele>
<time>2013-04-26T06:00:25.000Z</time>
</trkpt>
<trkpt lat="32.7676120" lon="35.2732180">
<ele>184.065002</ele>
<time>2013-04-26T06:00:37.000Z</time>
</trkpt>
<trkpt lat="32.7678580" lon="35.2733340">
<ele>183.676987</ele>
<time>2013-04-26T06:00:47.000Z</time>
</trkpt>
<trkpt lat="32.7678620" lon="35.2733370">
<ele>182.975998</ele>
<time>2013-04-26T06:00:58.000Z</time>
</trkpt>
<trkpt lat="32.7678610" lon="35.2733350">
<ele>183.469009</ele>
<time>2013-04-26T06:01:18.000Z</time>
</trkpt>
<trkpt lat="32.7679490" lon="35.2733470">
<ele>183.199997</ele>
<time>2013-04-26T06:01:30.000Z</time>
</trkpt>
<trkpt lat="32.7679980" lon="35.2733730">
<ele>182.204010</ele>
<time>2013-04-26T06:01:32.000Z</time>
</trkpt>
<trkpt lat="32.7681600" lon="35.2735260">
<ele>182.013000</ele>
<time>2013-04-26T06:01:39.000Z</time>
</trkpt>
<trkpt lat="32.7683420" lon="35.2736120">
<ele>180.970001</ele>
<time>2013-04-26T06:01:44.000Z</time>
</trkpt>
<trkpt lat="32.7686230" lon="35.2737770">
<ele>180.413010</ele>
<time>2013-04-26T06:01:52.000Z</time>
</trkpt>
<trkpt lat="32.7688080" lon="35.2738540">
<ele>179.037003</ele>
<time>2013-04-26T06:01:57.000Z</time>
</trkpt>
<trkpt lat="32.7689420" lon="35.2738870">
<ele>177.804993</ele>
<time>2013-04-26T06:02:00.000Z</time>
</trkpt>
<trkpt lat="32.7690560" lon="35.2738990">
<ele>174.703995</ele>
<time>2013-04-26T06:02:03.000Z</time>
</trkpt>
<trkpt lat="32.7692340" lon="35.2739020">
<ele>172.373001</ele>
<time>2013-04-26T06:02:06.000Z</time>
</trkpt>
<trkpt lat="32.7693660" lon="35.2739160">
<ele>169.870010</ele>
<time>2013-04-26T06:02:08.000Z</time>
</trkpt>
<trkpt lat="32.7694940" lon="35.2739350">
<ele>168.208008</ele>
<time>2013-04-26T06:02:10.000Z</time>
</trkpt>
<trkpt lat="32.7696770" lon="35.2740510">
<ele>168.209000</ele>
<time>2013-04-26T06:02:15.000Z</time>
</trkpt>
<trkpt lat="32.7697310" lon="35.2743890">
<ele>165.516006</ele>
<time>2013-04-26T06:02:22.000Z</time>
</trkpt>
<trkpt lat="32.7697350" lon="35.2745680">
<ele>163.965988</ele>
<time>2013-04-26T06:02:25.000Z</time>
</trkpt>
<trkpt lat="32.7696840" lon="35.2748150">
<ele>162.903992</ele>
<time>2013-04-26T06:02:30.000Z</time>
</trkpt>
<trkpt lat="32.7696630" lon="35.2750640">
<ele>159.031006</ele>
<time>2013-04-26T06:02:34.000Z</time>
</trkpt>
<trkpt lat="32.7696620" lon="35.2751310">
<ele>159.710999</ele>
<time>2013-04-26T06:02:35.000Z</time>
</trkpt>
<trkpt lat="32.7696480" lon="35.2753600">
<ele>157.307999</ele>
<time>2013-04-26T06:02:39.000Z</time>
</trkpt>
<trkpt lat="32.7696030" lon="35.2754780">
<ele>155.697006</ele>
<time>2013-04-26T06:02:41.000Z</time>
</trkpt>
<trkpt lat="32.7696460" lon="35.2756800">
<ele>155.416000</ele>
<time>2013-04-26T06:02:47.000Z</time>
</trkpt>
<trkpt lat="32.7699620" lon="35.2759710">
<ele>153.363998</ele>
<time>2013-04-26T06:03:00.000Z</time>
</trkpt>
<trkpt lat="32.7700440" lon="35.2764690">
<ele>151.352997</ele>
<time>2013-04-26T06:03:12.000Z</time>
</trkpt>
<trkpt lat="32.7700360" lon="35.2768730">
<ele>152.063995</ele>
<time>2013-04-26T06:03:22.000Z</time>
</trkpt>
<trkpt lat="32.7700500" lon="35.2774650">
<ele>154.916000</ele>
<time>2013-04-26T06:03:38.000Z</time>
</trkpt>
<trkpt lat="32.7700660" lon="35.2779140">
<ele>157.126007</ele>
<time>2013-04-26T06:03:53.000Z</time>
</trkpt>
<trkpt lat="32.7700870" lon="35.2779650">
<ele>157.328995</ele>
<time>2013-04-26T06:04:02.000Z</time>
</trkpt>
<trkpt lat="32.7700810" lon="35.2779660">
<ele>157.319000</ele>
<time>2013-04-26T06:04:11.000Z</time>
</trkpt>
<trkpt lat="32.7700740" lon="35.2780320">
<ele>157.621002</ele>
<time>2013-04-26T06:04:15.000Z</time>
</trkpt>
<trkpt lat="32.7701630" lon="35.2781330">
<ele>158.044998</ele>
<time>2013-04-26T06:04:21.000Z</time>
</trkpt>
<trkpt lat="32.7703490" lon="35.2783470">
<ele>158.766998</ele>
<time>2013-04-26T06:04:31.000Z</time>
</trkpt>
<trkpt lat="32.7706080" lon="35.2785260">
<ele>160.569016</ele>
<time>2013-04-26T06:04:42.000Z</time>
</trkpt>
<trkpt lat="32.7706660" lon="35.2786560">
<ele>160.484009</ele>
<time>2013-04-26T06:04:47.000Z</time>
</trkpt>
<trkpt lat="32.7704630" lon="35.2787430">
<ele>161.756989</ele>
<time>2013-04-26T06:04:57.000Z</time>
</trkpt>
<trkpt lat="32.7704000" lon="35.2787320">
<ele>163.475006</ele>
<time>2013-04-26T06:04:59.000Z</time>
</trkpt>
<trkpt lat="32.7703360" lon="35.2788280">
<ele>164.249008</ele>
<time>2013-04-26T06:05:04.000Z</time>
</trkpt>
<trkpt lat="32.7703740" lon="35.2791060">
<ele>164.837997</ele>
<time>2013-04-26T06:05:13.000Z</time>
</trkpt>
<trkpt lat="32.7703360" lon="35.2791210">
<ele>166.632004</ele>
<time>2013-04-26T06:05:17.000Z</time>
</trkpt>
<trkpt lat="32.7701760" lon="35.2789040">
<ele>166.818008</ele>
<time>2013-04-26T06:05:27.000Z</time>
</trkpt>
<trkpt lat="32.7699060" lon="35.2787330">
<ele>167.686005</ele>
<time>2013-04-26T06:05:39.000Z</time>
</trkpt>
<trkpt lat="32.7696820" lon="35.2786790">
<ele>167.082001</ele>
<time>2013-04-26T06:05:48.000Z</time>
</trkpt>
<trkpt lat="32.7695420" lon="35.2787020">
<ele>168.387985</ele>
<time>2013-04-26T06:05:53.000Z</time>
</trkpt>
<trkpt lat="32.7695370" lon="35.2788140">
<ele>171.356003</ele>
<time>2013-04-26T06:05:59.000Z</time>
</trkpt>
<trkpt lat="32.7696300" lon="35.2788790">
<ele>171.861008</ele>
<time>2013-04-26T06:06:04.000Z</time>
</trkpt>
<trkpt lat="32.7697930" lon="35.2790400">
<ele>174.187012</ele>
<time>2013-04-26T06:06:14.000Z</time>
</trkpt>
<trkpt lat="32.7699250" lon="35.2791090">
<ele>172.279999</ele>
<time>2013-04-26T06:06:19.000Z</time>
</trkpt>
<trkpt lat="32.7700790" lon="35.2793350">
<ele>171.471008</ele>
<time>2013-04-26T06:06:26.000Z</time>
</trkpt>
<trkpt lat="32.7700980" lon="35.2796150">
<ele>171.841003</ele>
<time>2013-04-26T06:06:35.000Z</time>
</trkpt>
<trkpt lat="32.7700150" lon="35.2798950">
<ele>172.971985</ele>
<time>2013-04-26T06:06:45.000Z</time>
</trkpt>
<trkpt lat="32.7700080" lon="35.2800130">
<ele>171.962006</ele>
<time>2013-04-26T06:06:48.000Z</time>
</trkpt>
<trkpt lat="32.7699550" lon="35.2801910">
<ele>172.696014</ele>
<time>2013-04-26T06:06:52.000Z</time>
</trkpt>
<trkpt lat="32.7699100" lon="35.2803260">
<ele>176.516998</ele>
<time>2013-04-26T06:06:56.000Z</time>
</trkpt>
<trkpt lat="32.7698080" lon="35.2806360">
<ele>176.994003</ele>
<time>2013-04-26T06:07:07.000Z</time>
</trkpt>
<trkpt lat="32.7697100" lon="35.2807800">
<ele>176.001999</ele>
<time>2013-04-26T06:07:13.000Z</time>
</trkpt>
<trkpt lat="32.7695820" lon="35.2809440">
<ele>176.695007</ele>
<time>2013-04-26T06:07:21.000Z</time>
</trkpt>
<trkpt lat="32.7694290" lon="35.2810720">
<ele>176.684998</ele>
<time>2013-04-26T06:07:30.000Z</time>
</trkpt>
<trkpt lat="32.7692820" lon="35.2812180">
<ele>174.156998</ele>
<time>2013-04-26T06:07:36.000Z</time>
</trkpt>
<trkpt lat="32.7692540" lon="35.2812930">
<ele>171.841995</ele>
<time>2013-04-26T06:07:38.000Z</time>
</trkpt>
<trkpt lat="32.7691190" lon="35.2815710">
<ele>169.278000</ele>
<time>2013-04-26T06:07:45.000Z</time>
</trkpt>
<trkpt lat="32.7690350" lon="35.2817330">
<ele>168.712997</ele>
<time>2013-04-26T06:07:51.000Z</time>
</trkpt>
<trkpt lat="32.7689910" lon="35.2817940">
<ele>168.279999</ele>
<time>2013-04-26T06:07:53.000Z</time>
</trkpt>
<trkpt lat="32.7687560" lon="35.2820460">
<ele>167.682999</ele>
<time>2013-04-26T06:08:03.000Z</time>
</trkpt>
<trkpt lat="32.7684640" lon="35.2822460">
<ele>165.943008</ele>
<time>2013-04-26T06:08:10.000Z</time>
</trkpt>
<trkpt lat="32.7683990" lon="35.2822720">
<ele>167.767014</ele>
<time>2013-04-26T06:08:12.000Z</time>
</trkpt>
<trkpt lat="32.7683390" lon="35.2822820">
<ele>168.075989</ele>
<time>2013-04-26T06:08:14.000Z</time>
</trkpt>
<trkpt lat="32.7682160" lon="35.2823630">
<ele>166.462006</ele>
<time>2013-04-26T06:08:18.000Z</time>
</trkpt>
<trkpt lat="32.7681780" lon="35.2824460">
<ele>165.141998</ele>
<time>2013-04-26T06:08:20.000Z</time>
</trkpt>
<trkpt lat="32.7680710" lon="35.2826690">
<ele>163.325989</ele>
<time>2013-04-26T06:08:25.000Z</time>
</trkpt>
<trkpt lat="32.7680240" lon="35.2827770">
<ele>163.080002</ele>
<time>2013-04-26T06:08:33.000Z</time>
</trkpt>
<trkpt lat="32.7680330" lon="35.2827900">
<ele>162.745987</ele>
<time>2013-04-26T06:08:55.000Z</time>
</trkpt>
<trkpt lat="32.7680420" lon="35.2828090">
<ele>162.936996</ele>
<time>2013-04-26T06:09:22.000Z</time>
</trkpt>
<trkpt lat="32.7680280" lon="35.2828240">
<ele>164.578995</ele>
<time>2013-04-26T06:19:14.000Z</time>
</trkpt>
<trkpt lat="32.7680040" lon="35.2828460">
<ele>165.158997</ele>
<time>2013-04-26T06:19:26.000Z</time>
</trkpt>
<trkpt lat="32.7679930" lon="35.2828430">
<ele>165.195999</ele>
<time>2013-04-26T06:20:02.000Z</time>
</trkpt>
<trkpt lat="32.7679840" lon="35.2828780">
<ele>164.634003</ele>
<time>2013-04-26T06:20:17.000Z</time>
</trkpt>
<trkpt lat="32.7679230" lon="35.2830380">
<ele>165.238998</ele>
<time>2013-04-26T06:20:29.000Z</time>
</trkpt>
<trkpt lat="32.7678330" lon="35.2833020">
<ele>163.356003</ele>
<time>2013-04-26T06:20:40.000Z</time>
</trkpt>
<trkpt lat="32.7676990" lon="35.2834820">
<ele>163.771011</ele>
<time>2013-04-26T06:20:50.000Z</time>
</trkpt>
<trkpt lat="32.7676520" lon="35.2836180">
<ele>163.539001</ele>
<time>2013-04-26T06:20:55.000Z</time>
</trkpt>
<trkpt lat="32.7675720" lon="35.2836730">
<ele>164.097000</ele>
<time>2013-04-26T06:21:01.000Z</time>
</trkpt>
<trkpt lat="32.7674460" lon="35.2838340">
<ele>164.269012</ele>
<time>2013-04-26T06:21:11.000Z</time>
</trkpt>
<trkpt lat="32.7673920" lon="35.2838940">
<ele>163.673004</ele>
<time>2013-04-26T06:21:14.000Z</time>
</trkpt>
<trkpt lat="32.7672880" lon="35.2839100">
<ele>165.300995</ele>
<time>2013-04-26T06:21:18.000Z</time>
</trkpt>
<trkpt lat="32.7672200" lon="35.2839120">
<ele>165.612000</ele>
<time>2013-04-26T06:21:21.000Z</time>
</trkpt>
<trkpt lat="32.7671760" lon="35.2839010">
<ele>166.266998</ele>
<time>2013-04-26T06:21:23.000Z</time>
</trkpt>
<trkpt lat="32.7669370" lon="35.2838570">
<ele>165.419998</ele>
<time>2013-04-26T06:21:33.000Z</time>
</trkpt>
<trkpt lat="32.7667190" lon="35.2837770">
<ele>166.432007</ele>
<time>2013-04-26T06:21:42.000Z</time>
</trkpt>
<trkpt lat="32.7664550" lon="35.2836590">
<ele>167.350998</ele>
<time>2013-04-26T06:21:52.000Z</time>
</trkpt>
<trkpt lat="32.7661290" lon="35.2835670">
<ele>166.597992</ele>
<time>2013-04-26T06:22:04.000Z</time>
</trkpt>
<trkpt lat="32.7659190" lon="35.2835090">
<ele>167.559006</ele>
<time>2013-04-26T06:22:12.000Z</time>
</trkpt>
<trkpt lat="32.7657440" lon="35.2833960">
<ele>167.168991</ele>
<time>2013-04-26T06:22:19.000Z</time>
</trkpt>
<trkpt lat="32.7655750" lon="35.2833150">
<ele>167.430008</ele>
<time>2013-04-26T06:22:27.000Z</time>
</trkpt>
<trkpt lat="32.7654140" lon="35.2831790">
<ele>166.178009</ele>
<time>2013-04-26T06:22:33.000Z</time>
</trkpt>
<trkpt lat="32.7652380" lon="35.2830040">
<ele>166.592987</ele>
<time>2013-04-26T06:22:42.000Z</time>
</trkpt>
<trkpt lat="32.7651280" lon="35.2829650">
<ele>167.348999</ele>
<time>2013-04-26T06:22:46.000Z</time>
</trkpt>
<trkpt lat="32.7650820" lon="35.2829260">
<ele>166.794998</ele>
<time>2013-04-26T06:22:48.000Z</time>
</trkpt>
<trkpt lat="32.7649970" lon="35.2829000">
<ele>166.123001</ele>
<time>2013-04-26T06:22:51.000Z</time>
</trkpt>
<trkpt lat="32.7646950" lon="35.2827770">
<ele>165.935989</ele>
<time>2013-04-26T06:23:02.000Z</time>
</trkpt>
<trkpt lat="32.7645270" lon="35.2827530">
<ele>165.278000</ele>
<time>2013-04-26T06:23:08.000Z</time>
</trkpt>
<trkpt lat="32.7644910" lon="35.2827540">
<ele>165.355011</ele>
<time>2013-04-26T06:23:09.000Z</time>
</trkpt>
<trkpt lat="32.7643320" lon="35.2827930">
<ele>166.022995</ele>
<time>2013-04-26T06:23:15.000Z</time>
</trkpt>
<trkpt lat="32.7642020" lon="35.2828340">
<ele>166.897995</ele>
<time>2013-04-26T06:23:20.000Z</time>
</trkpt>
<trkpt lat="32.7641510" lon="35.2828490">
<ele>166.686996</ele>
<time>2013-04-26T06:23:22.000Z</time>
</trkpt>
<trkpt lat="32.7639640" lon="35.2828670">
<ele>166.106995</ele>
<time>2013-04-26T06:23:29.000Z</time>
</trkpt>
<trkpt lat="32.7637080" lon="35.2829550">
<ele>167.370010</ele>
<time>2013-04-26T06:23:39.000Z</time>
</trkpt>
<trkpt lat="32.7635900" lon="35.2829710">
<ele>166.893997</ele>
<time>2013-04-26T06:23:43.000Z</time>
</trkpt>
<trkpt lat="32.7633290" lon="35.2829400">
<ele>167.686996</ele>
<time>2013-04-26T06:23:52.000Z</time>
</trkpt>
<trkpt lat="32.7632350" lon="35.2829560">
<ele>167.623001</ele>
<time>2013-04-26T06:23:55.000Z</time>
</trkpt>
<trkpt lat="32.7630190" lon="35.2831080">
<ele>168.854996</ele>
<time>2013-04-26T06:24:03.000Z</time>
</trkpt>
<trkpt lat="32.7628780" lon="35.2832690">
<ele>169.621994</ele>
<time>2013-04-26T06:24:12.000Z</time>
</trkpt>
<trkpt lat="32.7626970" lon="35.2833950">
<ele>170.546005</ele>
<time>2013-04-26T06:24:21.000Z</time>
</trkpt>
<trkpt lat="32.7624590" lon="35.2835240">
<ele>171.761993</ele>
<time>2013-04-26T06:24:31.000Z</time>
</trkpt>
<trkpt lat="32.7621920" lon="35.2835480">
<ele>170.869995</ele>
<time>2013-04-26T06:24:40.000Z</time>
</trkpt>
<trkpt lat="32.7619910" lon="35.2836540">
<ele>170.313004</ele>
<time>2013-04-26T06:24:48.000Z</time>
</trkpt>
<trkpt lat="32.7617830" lon="35.2836860">
<ele>171.062012</ele>
<time>2013-04-26T06:24:56.000Z</time>
</trkpt>
<trkpt lat="32.7614750" lon="35.2837310">
<ele>170.302002</ele>
<time>2013-04-26T06:25:06.000Z</time>
</trkpt>
<trkpt lat="32.7612910" lon="35.2837760">
<ele>169.555008</ele>
<time>2013-04-26T06:25:12.000Z</time>
</trkpt>
<trkpt lat="32.7610560" lon="35.2838830">
<ele>169.557999</ele>
<time>2013-04-26T06:25:21.000Z</time>
</trkpt>
<trkpt lat="32.7610020" lon="35.2839580">
<ele>169.757004</ele>
<time>2013-04-26T06:25:25.000Z</time>
</trkpt>
<trkpt lat="32.7609480" lon="35.2840020">
<ele>170.219986</ele>
<time>2013-04-26T06:25:34.000Z</time>
</trkpt>
<trkpt lat="32.7609440" lon="35.2840060">
<ele>170.759995</ele>
<time>2013-04-26T06:25:35.000Z</time>
</trkpt>
<trkpt lat="32.7608770" lon="35.2840400">
<ele>170.492996</ele>
<time>2013-04-26T06:25:44.000Z</time>
</trkpt>
<trkpt lat="32.7606910" lon="35.2841410">
<ele>170.574005</ele>
<time>2013-04-26T06:25:53.000Z</time>
</trkpt>
<trkpt lat="32.7603770" lon="35.2841850">
<ele>169.920990</ele>
<time>2013-04-26T06:26:04.000Z</time>
</trkpt>
<trkpt lat="32.7602210" lon="35.2842870">
<ele>171.015991</ele>
<time>2013-04-26T06:26:10.000Z</time>
</trkpt>
<trkpt lat="32.7600570" lon="35.2843840">
<ele>171.824005</ele>
<time>2013-04-26T06:26:19.000Z</time>
</trkpt>
<trkpt lat="32.7599390" lon="35.2844820">
<ele>171.917007</ele>
<time>2013-04-26T06:26:26.000Z</time>
</trkpt>
<trkpt lat="32.7598130" lon="35.2845640">
<ele>172.051010</ele>
<time>2013-04-26T06:26:33.000Z</time>
</trkpt>
<trkpt lat="32.7597540" lon="35.2846320">
<ele>171.558990</ele>
<time>2013-04-26T06:26:37.000Z</time>
</trkpt>
<trkpt lat="32.7596660" lon="35.2847150">
<ele>172.526993</ele>
<time>2013-04-26T06:26:42.000Z</time>
</trkpt>
<trkpt lat="32.7593720" lon="35.2848210">
<ele>173.253998</ele>
<time>2013-04-26T06:26:52.000Z</time>
</trkpt>
<trkpt lat="32.7591690" lon="35.2849760">
<ele>174.852997</ele>
<time>2013-04-26T06:27:01.000Z</time>
</trkpt>
<trkpt lat="32.7588910" lon="35.2851210">
<ele>175.586014</ele>
<time>2013-04-26T06:27:12.000Z</time>
</trkpt>
<trkpt lat="32.7585680" lon="35.2851460">
<ele>175.237991</ele>
<time>2013-04-26T06:27:22.000Z</time>
</trkpt>
<trkpt lat="32.7583120" lon="35.2852590">
<ele>174.647995</ele>
<time>2013-04-26T06:27:32.000Z</time>
</trkpt>
<trkpt lat="32.7581230" lon="35.2853560">
<ele>174.143005</ele>
<time>2013-04-26T06:27:40.000Z</time>
</trkpt>
<trkpt lat="32.7578780" lon="35.2853530">
<ele>174.917999</ele>
<time>2013-04-26T06:27:49.000Z</time>
</trkpt>
<trkpt lat="32.7578190" lon="35.2852940">
<ele>175.263000</ele>
<time>2013-04-26T06:27:52.000Z</time>
</trkpt>
<trkpt lat="32.7576430" lon="35.2850520">
<ele>174.767014</ele>
<time>2013-04-26T06:28:02.000Z</time>
</trkpt>
<trkpt lat="32.7575840" lon="35.2850470">
<ele>175.475006</ele>
<time>2013-04-26T06:28:11.000Z</time>
</trkpt>
<trkpt lat="32.7575120" lon="35.2850570">
<ele>174.425003</ele>
<time>2013-04-26T06:28:22.000Z</time>
</trkpt>
<trkpt lat="32.7573250" lon="35.2851130">
<ele>173.975006</ele>
<time>2013-04-26T06:28:31.000Z</time>
</trkpt>
<trkpt lat="32.7572330" lon="35.2850710">
<ele>172.526016</ele>
<time>2013-04-26T06:28:33.000Z</time>
</trkpt>
<trkpt lat="32.7571260" lon="35.2850590">
<ele>171.914993</ele>
<time>2013-04-26T06:28:35.000Z</time>
</trkpt>
<trkpt lat="32.7570330" lon="35.2851150">
<ele>170.937988</ele>
<time>2013-04-26T06:28:37.000Z</time>
</trkpt>
<trkpt lat="32.7567290" lon="35.2855210">
<ele>171.963989</ele>
<time>2013-04-26T06:28:47.000Z</time>
</trkpt>
<trkpt lat="32.7565810" lon="35.2858320">
<ele>174.159012</ele>
<time>2013-04-26T06:28:57.000Z</time>
</trkpt>
<trkpt lat="32.7564290" lon="35.2860190">
<ele>175.408997</ele>
<time>2013-04-26T06:29:08.000Z</time>
</trkpt>
<trkpt lat="32.7564220" lon="35.2860220">
<ele>175.213013</ele>
<time>2013-04-26T06:29:22.000Z</time>
</trkpt>
<trkpt lat="32.7564200" lon="35.2860230">
<ele>175.066010</ele>
<time>2013-04-26T06:29:43.000Z</time>
</trkpt>
<trkpt lat="32.7564150" lon="35.2860110">
<ele>175.204010</ele>
<time>2013-04-26T06:31:03.000Z</time>
</trkpt>
<trkpt lat="32.7563940" lon="35.2860030">
<ele>175.041000</ele>
<time>2013-04-26T06:31:14.000Z</time>
</trkpt>
<trkpt lat="32.7562380" lon="35.2857400">
<ele>174.778000</ele>
<time>2013-04-26T06:31:31.000Z</time>
</trkpt>
<trkpt lat="32.7562300" lon="35.2855010">
<ele>174.013992</ele>
<time>2013-04-26T06:31:42.000Z</time>
</trkpt>
<trkpt lat="32.7563780" lon="35.2850760">
<ele>173.750992</ele>
<time>2013-04-26T06:31:54.000Z</time>
</trkpt>
<trkpt lat="32.7564730" lon="35.2846420">
<ele>174.600006</ele>
<time>2013-04-26T06:32:06.000Z</time>
</trkpt>
<trkpt lat="32.7565440" lon="35.2843200">
<ele>175.190994</ele>
<time>2013-04-26T06:32:15.000Z</time>
</trkpt>
<trkpt lat="32.7566190" lon="35.2839300">
<ele>175.641006</ele>
<time>2013-04-26T06:32:27.000Z</time>
</trkpt>
<trkpt lat="32.7566350" lon="35.2838330">
<ele>176.022003</ele>
<time>2013-04-26T06:32:36.000Z</time>
</trkpt>
<trkpt lat="32.7566350" lon="35.2838310">
<ele>175.107010</ele>
<time>2013-04-26T06:33:06.000Z</time>
</trkpt>
<trkpt lat="32.7566330" lon="35.2837610">
<ele>176.460999</ele>
<time>2013-04-26T06:33:10.000Z</time>
</trkpt>
<trkpt lat="32.7565980" lon="35.2835190">
<ele>176.004990</ele>
<time>2013-04-26T06:33:23.000Z</time>
</trkpt>
<trkpt lat="32.7565950" lon="35.2835140">
<ele>177.394989</ele>
<time>2013-04-26T06:33:25.000Z</time>
</trkpt>
<trkpt lat="32.7565750" lon="35.2833720">
<ele>178.727997</ele>
<time>2013-04-26T06:33:33.000Z</time>
</trkpt>
<trkpt lat="32.7566610" lon="35.2831200">
<ele>178.854996</ele>
<time>2013-04-26T06:33:43.000Z</time>
</trkpt>
<trkpt lat="32.7568110" lon="35.2829040">
<ele>179.181992</ele>
<time>2013-04-26T06:33:51.000Z</time>
</trkpt>
<trkpt lat="32.7569380" lon="35.2826800">
<ele>178.886993</ele>
<time>2013-04-26T06:33:58.000Z</time>
</trkpt>
<trkpt lat="32.7569540" lon="35.2826110">
<ele>178.656998</ele>
<time>2013-04-26T06:34:00.000Z</time>
</trkpt>
<trkpt lat="32.7569880" lon="35.2824510">
<ele>179.870987</ele>
<time>2013-04-26T06:34:05.000Z</time>
</trkpt>
<trkpt lat="32.7572000" lon="35.2822620">
<ele>180.158997</ele>
<time>2013-04-26T06:34:14.000Z</time>
</trkpt>
<trkpt lat="32.7573890" lon="35.2822760">
<ele>181.173996</ele>
<time>2013-04-26T06:34:22.000Z</time>
</trkpt>
<trkpt lat="32.7575500" lon="35.2823500">
<ele>182.632996</ele>
<time>2013-04-26T06:34:30.000Z</time>
</trkpt>
<trkpt lat="32.7577400" lon="35.2823820">
<ele>183.339005</ele>
<time>2013-04-26T06:34:37.000Z</time>
</trkpt>
<trkpt lat="32.7579790" lon="35.2824810">
<ele>183.244995</ele>
<time>2013-04-26T06:34:47.000Z</time>
</trkpt>
<trkpt lat="32.7581690" lon="35.2825060">
<ele>183.838989</ele>
<time>2013-04-26T06:34:55.000Z</time>
</trkpt>
<trkpt lat="32.7583770" lon="35.2824500">
<ele>184.317993</ele>
<time>2013-04-26T06:35:04.000Z</time>
</trkpt>
<trkpt lat="32.7586030" lon="35.2823710">
<ele>184.201996</ele>
<time>2013-04-26T06:35:12.000Z</time>
</trkpt>
<trkpt lat="32.7588320" lon="35.2822260">
<ele>183.980011</ele>
<time>2013-04-26T06:35:21.000Z</time>
</trkpt>
<trkpt lat="32.7589930" lon="35.2820060">
<ele>185.789993</ele>
<time>2013-04-26T06:35:31.000Z</time>
</trkpt>
<trkpt lat="32.7591410" lon="35.2818030">
<ele>188.499008</ele>
<time>2013-04-26T06:35:41.000Z</time>
</trkpt>
<trkpt lat="32.7593540" lon="35.2816400">
<ele>190.060013</ele>
<time>2013-04-26T06:35:51.000Z</time>
</trkpt>
<trkpt lat="32.7594670" lon="35.2815160">
<ele>189.065002</ele>
<time>2013-04-26T06:35:56.000Z</time>
</trkpt>
<trkpt lat="32.7596240" lon="35.2813130">
<ele>190.640991</ele>
<time>2013-04-26T06:36:06.000Z</time>
</trkpt>
<trkpt lat="32.7597770" lon="35.2811730">
<ele>190.654007</ele>
<time>2013-04-26T06:36:14.000Z</time>
</trkpt>
<trkpt lat="32.7599100" lon="35.2809750">
<ele>191.478989</ele>
<time>2013-04-26T06:36:22.000Z</time>
</trkpt>
<trkpt lat="32.7600830" lon="35.2807310">
<ele>192.541992</ele>
<time>2013-04-26T06:36:32.000Z</time>
</trkpt>
<trkpt lat="32.7601140" lon="35.2806340">
<ele>193.788010</ele>
<time>2013-04-26T06:36:35.000Z</time>
</trkpt>
<trkpt lat="32.7601350" lon="35.2803670">
<ele>193.740997</ele>
<time>2013-04-26T06:36:43.000Z</time>
</trkpt>
<trkpt lat="32.7601140" lon="35.2801970">
<ele>193.522995</ele>
<time>2013-04-26T06:36:48.000Z</time>
</trkpt>
<trkpt lat="32.7600810" lon="35.2800340">
<ele>193.001999</ele>
<time>2013-04-26T06:36:52.000Z</time>
</trkpt>
<trkpt lat="32.7598270" lon="35.2798170">
<ele>192.593002</ele>
<time>2013-04-26T06:37:02.000Z</time>
</trkpt>
<trkpt lat="32.7596890" lon="35.2795770">
<ele>191.608002</ele>
<time>2013-04-26T06:37:09.000Z</time>
</trkpt>
<trkpt lat="32.7595130" lon="35.2792800">
<ele>190.985001</ele>
<time>2013-04-26T06:37:18.000Z</time>
</trkpt>
<trkpt lat="32.7595190" lon="35.2792350">
<ele>190.510010</ele>
<time>2013-04-26T06:37:19.000Z</time>
</trkpt>
<trkpt lat="32.7595030" lon="35.2791030">
<ele>190.350006</ele>
<time>2013-04-26T06:37:22.000Z</time>
</trkpt>
<trkpt lat="32.7595340" lon="35.2788090">
<ele>188.179993</ele>
<time>2013-04-26T06:37:28.000Z</time>
</trkpt>
<trkpt lat="32.7594630" lon="35.2785090">
<ele>188.386002</ele>
<time>2013-04-26T06:37:36.000Z</time>
</trkpt>
<trkpt lat="32.7594730" lon="35.2781970">
<ele>186.292999</ele>
<time>2013-04-26T06:37:44.000Z</time>
</trkpt>
<trkpt lat="32.7594600" lon="35.2781350">
<ele>185.794998</ele>
<time>2013-04-26T06:37:46.000Z</time>
</trkpt>
<trkpt lat="32.7594370" lon="35.2779790">
<ele>185.343994</ele>
<time>2013-04-26T06:37:51.000Z</time>
</trkpt>
<trkpt lat="32.7592520" lon="35.2776290">
<ele>185.775009</ele>
<time>2013-04-26T06:38:02.000Z</time>
</trkpt>
<trkpt lat="32.7591830" lon="35.2774610">
<ele>188.722992</ele>
<time>2013-04-26T06:38:09.000Z</time>
</trkpt>
<trkpt lat="32.7590950" lon="35.2773770">
<ele>191.056000</ele>
<time>2013-04-26T06:38:15.000Z</time>
</trkpt>
<trkpt lat="32.7590550" lon="35.2773560">
<ele>191.348007</ele>
<time>2013-04-26T06:38:17.000Z</time>
</trkpt>
<trkpt lat="32.7589370" lon="35.2772880">
<ele>191.860992</ele>
<time>2013-04-26T06:38:26.000Z</time>
</trkpt>
<trkpt lat="32.7589370" lon="35.2772930">
<ele>192.061005</ele>
<time>2013-04-26T06:38:50.000Z</time>
</trkpt>
<trkpt lat="32.7589150" lon="35.2772250">
<ele>191.597992</ele>
<time>2013-04-26T06:39:04.000Z</time>
</trkpt>
<trkpt lat="32.7587640" lon="35.2771500">
<ele>191.567001</ele>
<time>2013-04-26T06:39:12.000Z</time>
</trkpt>
<trkpt lat="32.7585900" lon="35.2770550">
<ele>191.000992</ele>
<time>2013-04-26T06:39:20.000Z</time>
</trkpt>
<trkpt lat="32.7583920" lon="35.2770270">
<ele>193.134995</ele>
<time>2013-04-26T06:39:28.000Z</time>
</trkpt>
<trkpt lat="32.7581450" lon="35.2771080">
<ele>193.983994</ele>
<time>2013-04-26T06:39:37.000Z</time>
</trkpt>
<trkpt lat="32.7579590" lon="35.2772790">
<ele>196.126007</ele>
<time>2013-04-26T06:39:46.000Z</time>
</trkpt>
<trkpt lat="32.7577900" lon="35.2773610">
<ele>196.638000</ele>
<time>2013-04-26T06:39:54.000Z</time>
</trkpt>
<trkpt lat="32.7576620" lon="35.2774750">
<ele>198.859985</ele>
<time>2013-04-26T06:40:01.000Z</time>
</trkpt>
<trkpt lat="32.7575610" lon="35.2776080">
<ele>199.513000</ele>
<time>2013-04-26T06:40:10.000Z</time>
</trkpt>
<trkpt lat="32.7574580" lon="35.2776410">
<ele>197.783005</ele>
<time>2013-04-26T06:40:14.000Z</time>
</trkpt>
<trkpt lat="32.7572900" lon="35.2776950">
<ele>199.164993</ele>
<time>2013-04-26T06:40:22.000Z</time>
</trkpt>
<trkpt lat="32.7571150" lon="35.2776890">
<ele>200.638000</ele>
<time>2013-04-26T06:40:29.000Z</time>
</trkpt>
<trkpt lat="32.7568740" lon="35.2777230">
<ele>202.611008</ele>
<time>2013-04-26T06:40:39.000Z</time>
</trkpt>
<trkpt lat="32.7568460" lon="35.2777240">
<ele>201.895004</ele>
<time>2013-04-26T06:40:40.000Z</time>
</trkpt>
<trkpt lat="32.7567910" lon="35.2776940">
<ele>201.234009</ele>
<time>2013-04-26T06:40:42.000Z</time>
</trkpt>
<trkpt lat="32.7567340" lon="35.2776310">
<ele>200.589005</ele>
<time>2013-04-26T06:40:44.000Z</time>
</trkpt>
<trkpt lat="32.7565920" lon="35.2772910">
<ele>198.944000</ele>
<time>2013-04-26T06:40:54.000Z</time>
</trkpt>
<trkpt lat="32.7565270" lon="35.2770390">
<ele>197.240005</ele>
<time>2013-04-26T06:41:02.000Z</time>
</trkpt>
<trkpt lat="32.7565210" lon="35.2767630">
<ele>197.287003</ele>
<time>2013-04-26T06:41:10.000Z</time>
</trkpt>
<trkpt lat="32.7565320" lon="35.2764310">
<ele>195.811005</ele>
<time>2013-04-26T06:41:18.000Z</time>
</trkpt>
<trkpt lat="32.7566520" lon="35.2762550">
<ele>195.882004</ele>
<time>2013-04-26T06:41:25.000Z</time>
</trkpt>
<trkpt lat="32.7567260" lon="35.2761610">
<ele>195.901993</ele>
<time>2013-04-26T06:41:29.000Z</time>
</trkpt>
<trkpt lat="32.7568520" lon="35.2760360">
<ele>195.673004</ele>
<time>2013-04-26T06:41:34.000Z</time>
</trkpt>
<trkpt lat="32.7569510" lon="35.2757920">
<ele>196.197998</ele>
<time>2013-04-26T06:41:43.000Z</time>
</trkpt>
<trkpt lat="32.7570610" lon="35.2756180">
<ele>196.194000</ele>
<time>2013-04-26T06:41:50.000Z</time>
</trkpt>
<trkpt lat="32.7571160" lon="35.2754130">
<ele>195.884995</ele>
<time>2013-04-26T06:41:58.000Z</time>
</trkpt>
<trkpt lat="32.7570890" lon="35.2752690">
<ele>197.424988</ele>
<time>2013-04-26T06:42:03.000Z</time>
</trkpt>
<trkpt lat="32.7570120" lon="35.2751500">
<ele>198.786987</ele>
<time>2013-04-26T06:42:08.000Z</time>
</trkpt>
<trkpt lat="32.7569710" lon="35.2750220">
<ele>199.062012</ele>
<time>2013-04-26T06:42:13.000Z</time>
</trkpt>
<trkpt lat="32.7569230" lon="35.2748970">
<ele>200.057999</ele>
<time>2013-04-26T06:42:23.000Z</time>
</trkpt>
<trkpt lat="32.7569180" lon="35.2748920">
<ele>199.960999</ele>
<time>2013-04-26T06:42:48.000Z</time>
</trkpt>
<trkpt lat="32.7569120" lon="35.2748930">
<ele>199.988998</ele>
<time>2013-04-26T06:43:25.000Z</time>
</trkpt>
<trkpt lat="32.7569070" lon="35.2748840">
<ele>199.597992</ele>
<time>2013-04-26T06:44:31.000Z</time>
</trkpt>
<trkpt lat="32.7568530" lon="35.2747320">
<ele>199.925003</ele>
<time>2013-04-26T06:44:40.000Z</time>
</trkpt>
<trkpt lat="32.7566910" lon="35.2745660">
<ele>199.356003</ele>
<time>2013-04-26T06:44:47.000Z</time>
</trkpt>
<trkpt lat="32.7564020" lon="35.2745450">
<ele>200.069000</ele>
<time>2013-04-26T06:44:58.000Z</time>
</trkpt>
<trkpt lat="32.7563110" lon="35.2745480">
<ele>199.893005</ele>
<time>2013-04-26T06:45:02.000Z</time>
</trkpt>
<trkpt lat="32.7561970" lon="35.2746070">
<ele>200.914993</ele>
<time>2013-04-26T06:45:08.000Z</time>
</trkpt>
<trkpt lat="32.7561130" lon="35.2746920">
<ele>203.343994</ele>
<time>2013-04-26T06:45:14.000Z</time>
</trkpt>
<trkpt lat="32.7558960" lon="35.2748550">
<ele>202.628006</ele>
<time>2013-04-26T06:45:25.000Z</time>
</trkpt>
<trkpt lat="32.7556050" lon="35.2748600">
<ele>200.870010</ele>
<time>2013-04-26T06:45:34.000Z</time>
</trkpt>
<trkpt lat="32.7554520" lon="35.2747010">
<ele>202.391998</ele>
<time>2013-04-26T06:45:41.000Z</time>
</trkpt>
<trkpt lat="32.7553420" lon="35.2744420">
<ele>201.943008</ele>
<time>2013-04-26T06:45:50.000Z</time>
</trkpt>
<trkpt lat="32.7553250" lon="35.2743590">
<ele>200.925003</ele>
<time>2013-04-26T06:45:52.000Z</time>
</trkpt>
<trkpt lat="32.7552740" lon="35.2740840">
<ele>201.567001</ele>
<time>2013-04-26T06:46:00.000Z</time>
</trkpt>
<trkpt lat="32.7552850" lon="35.2738190">
<ele>201.507996</ele>
<time>2013-04-26T06:46:07.000Z</time>
</trkpt>
<trkpt lat="32.7553120" lon="35.2736680">
<ele>201.713013</ele>
<time>2013-04-26T06:46:11.000Z</time>
</trkpt>
<trkpt lat="32.7553730" lon="35.2734340">
<ele>198.932007</ele>
<time>2013-04-26T06:46:17.000Z</time>
</trkpt>
<trkpt lat="32.7553550" lon="35.2733630">
<ele>198.987000</ele>
<time>2013-04-26T06:46:19.000Z</time>
</trkpt>
<trkpt lat="32.7553230" lon="35.2732690">
<ele>200.432999</ele>
<time>2013-04-26T06:46:22.000Z</time>
</trkpt>
<trkpt lat="32.7552510" lon="35.2730470">
<ele>200.420990</ele>
<time>2013-04-26T06:46:30.000Z</time>
</trkpt>
<trkpt lat="32.7551650" lon="35.2729910">
<ele>201.534012</ele>
<time>2013-04-26T06:46:34.000Z</time>
</trkpt>
<trkpt lat="32.7550700" lon="35.2727230">
<ele>201.330002</ele>
<time>2013-04-26T06:46:44.000Z</time>
</trkpt>
<trkpt lat="32.7550810" lon="35.2726290">
<ele>200.310013</ele>
<time>2013-04-26T06:46:46.000Z</time>
</trkpt>
<trkpt lat="32.7550350" lon="35.2724210">
<ele>200.108002</ele>
<time>2013-04-26T06:46:53.000Z</time>
</trkpt>
<trkpt lat="32.7549990" lon="35.2723730">
<ele>201.101013</ele>
<time>2013-04-26T06:47:01.000Z</time>
</trkpt>
<trkpt lat="32.7549560" lon="35.2723550">
<ele>201.481003</ele>
<time>2013-04-26T06:47:09.000Z</time>
</trkpt>
<trkpt lat="32.7548950" lon="35.2722720">
<ele>200.552002</ele>
<time>2013-04-26T06:47:19.000Z</time>
</trkpt>
<trkpt lat="32.7547700" lon="35.2719930">
<ele>200.639999</ele>
<time>2013-04-26T06:47:28.000Z</time>
</trkpt>
<trkpt lat="32.7546310" lon="35.2717720">
<ele>202.580994</ele>
<time>2013-04-26T06:47:37.000Z</time>
</trkpt>
<trkpt lat="32.7545930" lon="35.2715380">
<ele>202.535004</ele>
<time>2013-04-26T06:47:45.000Z</time>
</trkpt>
<trkpt lat="32.7545860" lon="35.2715160">
<ele>202.121002</ele>
<time>2013-04-26T06:47:53.000Z</time>
</trkpt>
<trkpt lat="32.7545940" lon="35.2715270">
<ele>202.321014</ele>
<time>2013-04-26T06:48:09.000Z</time>
</trkpt>
<trkpt lat="32.7545980" lon="35.2715290">
<ele>201.738998</ele>
<time>2013-04-26T06:48:19.000Z</time>
</trkpt>
<trkpt lat="32.7546190" lon="35.2713900">
<ele>198.648987</ele>
<time>2013-04-26T06:48:25.000Z</time>
</trkpt>
<trkpt lat="32.7546150" lon="35.2711130">
<ele>198.575012</ele>
<time>2013-04-26T06:48:32.000Z</time>
</trkpt>
<trkpt lat="32.7546130" lon="35.2709580">
<ele>198.268997</ele>
<time>2013-04-26T06:48:35.000Z</time>
</trkpt>
<trkpt lat="32.7545690" lon="35.2707620">
<ele>198.279007</ele>
<time>2013-04-26T06:48:39.000Z</time>
</trkpt>
<trkpt lat="32.7545260" lon="35.2705670">
<ele>198.770996</ele>
<time>2013-04-26T06:48:43.000Z</time>
</trkpt>
<trkpt lat="32.7544590" lon="35.2701020">
<ele>200.194000</ele>
<time>2013-04-26T06:48:53.000Z</time>
</trkpt>
<trkpt lat="32.7544570" lon="35.2700080">
<ele>199.066010</ele>
<time>2013-04-26T06:48:55.000Z</time>
</trkpt>
<trkpt lat="32.7544240" lon="35.2698050">
<ele>198.854004</ele>
<time>2013-04-26T06:48:59.000Z</time>
</trkpt>
<trkpt lat="32.7543470" lon="35.2695130">
<ele>198.340988</ele>
<time>2013-04-26T06:49:06.000Z</time>
</trkpt>
<trkpt lat="32.7541740" lon="35.2693220">
<ele>198.105988</ele>
<time>2013-04-26T06:49:14.000Z</time>
</trkpt>
<trkpt lat="32.7541220" lon="35.2693080">
<ele>198.188995</ele>
<time>2013-04-26T06:49:16.000Z</time>
</trkpt>
<trkpt lat="32.7540120" lon="35.2692590">
<ele>193.809998</ele>
<time>2013-04-26T06:49:19.000Z</time>
</trkpt>
<trkpt lat="32.7539930" lon="35.2692360">
<ele>193.778000</ele>
<time>2013-04-26T06:49:20.000Z</time>
</trkpt>
<trkpt lat="32.7540090" lon="35.2691340">
<ele>193.501999</ele>
<time>2013-04-26T06:49:24.000Z</time>
</trkpt>
<trkpt lat="32.7541050" lon="35.2690050">
<ele>189.684998</ele>
<time>2013-04-26T06:49:29.000Z</time>
</trkpt>
<trkpt lat="32.7541450" lon="35.2687990">
<ele>186.867996</ele>
<time>2013-04-26T06:49:33.000Z</time>
</trkpt>
<trkpt lat="32.7541150" lon="35.2687390">
<ele>186.001007</ele>
<time>2013-04-26T06:49:35.000Z</time>
</trkpt>
<trkpt lat="32.7540860" lon="35.2687000">
<ele>185.370987</ele>
<time>2013-04-26T06:49:46.000Z</time>
</trkpt>
<trkpt lat="32.7540850" lon="35.2686990">
<ele>185.576004</ele>
<time>2013-04-26T06:50:15.000Z</time>
</trkpt>
<trkpt lat="32.7540820" lon="35.2686940">
<ele>185.084000</ele>
<time>2013-04-26T06:50:21.000Z</time>
</trkpt>
<trkpt lat="32.7539090" lon="35.2685300">
<ele>185.650009</ele>
<time>2013-04-26T06:50:30.000Z</time>
</trkpt>
<trkpt lat="32.7538220" lon="35.2684130">
<ele>185.931000</ele>
<time>2013-04-26T06:50:39.000Z</time>
</trkpt>
<trkpt lat="32.7538020" lon="35.2684120">
<ele>186.483002</ele>
<time>2013-04-26T06:51:08.000Z</time>
</trkpt>
<trkpt lat="32.7537140" lon="35.2682910">
<ele>187.368988</ele>
<time>2013-04-26T06:51:16.000Z</time>
</trkpt>
<trkpt lat="32.7536470" lon="35.2681200">
<ele>185.972000</ele>
<time>2013-04-26T06:51:23.000Z</time>
</trkpt>
<trkpt lat="32.7535870" lon="35.2681080">
<ele>187.381989</ele>
<time>2013-04-26T06:51:27.000Z</time>
</trkpt>
<trkpt lat="32.7535100" lon="35.2681850">
<ele>189.346008</ele>
<time>2013-04-26T06:51:32.000Z</time>
</trkpt>
<trkpt lat="32.7534950" lon="35.2682040">
<ele>189.078003</ele>
<time>2013-04-26T06:51:33.000Z</time>
</trkpt>
<trkpt lat="32.7534390" lon="35.2682210">
<ele>190.907990</ele>
<time>2013-04-26T06:51:36.000Z</time>
</trkpt>
<trkpt lat="32.7533760" lon="35.2681030">
<ele>190.908997</ele>
<time>2013-04-26T06:51:40.000Z</time>
</trkpt>
<trkpt lat="32.7533770" lon="35.2679900">
<ele>192.265015</ele>
<time>2013-04-26T06:51:43.000Z</time>
</trkpt>
<trkpt lat="32.7533690" lon="35.2677730">
<ele>195.403992</ele>
<time>2013-04-26T06:51:51.000Z</time>
</trkpt>
<trkpt lat="32.7534130" lon="35.2675180">
<ele>195.076004</ele>
<time>2013-04-26T06:52:02.000Z</time>
</trkpt>
<trkpt lat="32.7533930" lon="35.2672970">
<ele>196.324005</ele>
<time>2013-04-26T06:52:10.000Z</time>
</trkpt>
<trkpt lat="32.7533830" lon="35.2672420">
<ele>196.365005</ele>
<time>2013-04-26T06:52:12.000Z</time>
</trkpt>
<trkpt lat="32.7533310" lon="35.2672510">
<ele>197.072998</ele>
<time>2013-04-26T06:52:18.000Z</time>
</trkpt>
<trkpt lat="32.7532910" lon="35.2675640">
<ele>197.927994</ele>
<time>2013-04-26T06:52:29.000Z</time>
</trkpt>
<trkpt lat="32.7532510" lon="35.2677020">
<ele>198.519989</ele>
<time>2013-04-26T06:52:34.000Z</time>
</trkpt>
<trkpt lat="32.7531880" lon="35.2677450">
<ele>199.962006</ele>
<time>2013-04-26T06:52:37.000Z</time>
</trkpt>
<trkpt lat="32.7531470" lon="35.2677650">
<ele>201.052002</ele>
<time>2013-04-26T06:52:39.000Z</time>
</trkpt>
<trkpt lat="32.7530580" lon="35.2679170">
<ele>201.723999</ele>
<time>2013-04-26T06:52:51.000Z</time>
</trkpt>
<trkpt lat="32.7530580" lon="35.2679260">
<ele>201.014999</ele>
<time>2013-04-26T06:53:16.000Z</time>
</trkpt>
<trkpt lat="32.7530750" lon="35.2680800">
<ele>201.167999</ele>
<time>2013-04-26T06:53:24.000Z</time>
</trkpt>
<trkpt lat="32.7530560" lon="35.2682780">
<ele>202.403992</ele>
<time>2013-04-26T06:53:31.000Z</time>
</trkpt>
<trkpt lat="32.7530260" lon="35.2683230">
<ele>202.026001</ele>
<time>2013-04-26T06:53:33.000Z</time>
</trkpt>
<trkpt lat="32.7530150" lon="35.2683670">
<ele>202.389008</ele>
<time>2013-04-26T06:53:35.000Z</time>
</trkpt>
<trkpt lat="32.7529790" lon="35.2685060">
<ele>201.776001</ele>
<time>2013-04-26T06:53:40.000Z</time>
</trkpt>
<trkpt lat="32.7528810" lon="35.2687570">
<ele>204.649994</ele>
<time>2013-04-26T06:53:47.000Z</time>
</trkpt>
<trkpt lat="32.7527760" lon="35.2690540">
<ele>205.347000</ele>
<time>2013-04-26T06:53:56.000Z</time>
</trkpt>
<trkpt lat="32.7527370" lon="35.2691630">
<ele>203.342987</ele>
<time>2013-04-26T06:53:59.000Z</time>
</trkpt>
<trkpt lat="32.7527120" lon="35.2692300">
<ele>204.724991</ele>
<time>2013-04-26T06:54:01.000Z</time>
</trkpt>
<trkpt lat="32.7526040" lon="35.2696760">
<ele>205.004990</ele>
<time>2013-04-26T06:54:13.000Z</time>
</trkpt>
<trkpt lat="32.7525740" lon="35.2700770">
<ele>203.703995</ele>
<time>2013-04-26T06:54:23.000Z</time>
</trkpt>
<trkpt lat="32.7525620" lon="35.2702520">
<ele>202.865997</ele>
<time>2013-04-26T06:54:27.000Z</time>
</trkpt>
<trkpt lat="32.7526200" lon="35.2704140">
<ele>199.770004</ele>
<time>2013-04-26T06:54:32.000Z</time>
</trkpt>
<trkpt lat="32.7525750" lon="35.2707590">
<ele>199.159012</ele>
<time>2013-04-26T06:54:41.000Z</time>
</trkpt>
<trkpt lat="32.7524480" lon="35.2710640">
<ele>200.326004</ele>
<time>2013-04-26T06:54:50.000Z</time>
</trkpt>
<trkpt lat="32.7523080" lon="35.2713870">
<ele>203.192001</ele>
<time>2013-04-26T06:54:59.000Z</time>
</trkpt>
<trkpt lat="32.7522540" lon="35.2714420">
<ele>203.602997</ele>
<time>2013-04-26T06:55:02.000Z</time>
</trkpt>
<trkpt lat="32.7521930" lon="35.2715720">
<ele>203.699005</ele>
<time>2013-04-26T06:55:07.000Z</time>
</trkpt>
<trkpt lat="32.7520440" lon="35.2718610">
<ele>204.007996</ele>
<time>2013-04-26T06:55:16.000Z</time>
</trkpt>
<trkpt lat="32.7519240" lon="35.2720400">
<ele>207.832001</ele>
<time>2013-04-26T06:55:23.000Z</time>
</trkpt>
<trkpt lat="32.7519120" lon="35.2720550">
<ele>207.825012</ele>
<time>2013-04-26T06:55:24.000Z</time>
</trkpt>
<trkpt lat="32.7518000" lon="35.2722070">
<ele>210.104996</ele>
<time>2013-04-26T06:55:32.000Z</time>
</trkpt>
<trkpt lat="32.7517050" lon="35.2723230">
<ele>211.195999</ele>
<time>2013-04-26T06:55:39.000Z</time>
</trkpt>
<trkpt lat="32.7517140" lon="35.2722090">
<ele>212.892990</ele>
<time>2013-04-26T06:55:46.000Z</time>
</trkpt>
<trkpt lat="32.7517890" lon="35.2719670">
<ele>214.847000</ele>
<time>2013-04-26T06:55:56.000Z</time>
</trkpt>
<trkpt lat="32.7518420" lon="35.2717510">
<ele>216.709991</ele>
<time>2013-04-26T06:56:06.000Z</time>
</trkpt>
<trkpt lat="32.7519280" lon="35.2715080">
<ele>217.653000</ele>
<time>2013-04-26T06:56:16.000Z</time>
</trkpt>
<trkpt lat="32.7520220" lon="35.2712060">
<ele>218.369003</ele>
<time>2013-04-26T06:56:27.000Z</time>
</trkpt>
<trkpt lat="32.7521200" lon="35.2708930">
<ele>218.201004</ele>
<time>2013-04-26T06:56:38.000Z</time>
</trkpt>
<trkpt lat="32.7521790" lon="35.2706690">
<ele>217.869995</ele>
<time>2013-04-26T06:56:45.000Z</time>
</trkpt>
<trkpt lat="32.7522330" lon="35.2703760">
<ele>219.117004</ele>
<time>2013-04-26T06:56:55.000Z</time>
</trkpt>
<trkpt lat="32.7522590" lon="35.2701340">
<ele>220.104004</ele>
<time>2013-04-26T06:57:02.000Z</time>
</trkpt>
<trkpt lat="32.7522830" lon="35.2698110">
<ele>220.625992</ele>
<time>2013-04-26T06:57:11.000Z</time>
</trkpt>
<trkpt lat="32.7523480" lon="35.2695590">
<ele>220.130005</ele>
<time>2013-04-26T06:57:19.000Z</time>
</trkpt>
<trkpt lat="32.7523610" lon="35.2694060">
<ele>219.040009</ele>
<time>2013-04-26T06:57:23.000Z</time>
</trkpt>
<trkpt lat="32.7524190" lon="35.2692520">
<ele>218.373001</ele>
<time>2013-04-26T06:57:27.000Z</time>
</trkpt>
<trkpt lat="32.7524610" lon="35.2691640">
<ele>217.716995</ele>
<time>2013-04-26T06:57:29.000Z</time>
</trkpt>
<trkpt lat="32.7524810" lon="35.2689560">
<ele>218.255997</ele>
<time>2013-04-26T06:57:34.000Z</time>
</trkpt>
<trkpt lat="32.7525350" lon="35.2685490">
<ele>218.277008</ele>
<time>2013-04-26T06:57:45.000Z</time>
</trkpt>
<trkpt lat="32.7525580" lon="35.2683280">
<ele>216.280991</ele>
<time>2013-04-26T06:57:49.000Z</time>
</trkpt>
<trkpt lat="32.7525690" lon="35.2682030">
<ele>216.311005</ele>
<time>2013-04-26T06:57:51.000Z</time>
</trkpt>
<trkpt lat="32.7525990" lon="35.2679910">
<ele>215.101990</ele>
<time>2013-04-26T06:57:55.000Z</time>
</trkpt>
<trkpt lat="32.7525400" lon="35.2677260">
<ele>215.921997</ele>
<time>2013-04-26T06:58:01.000Z</time>
</trkpt>
<trkpt lat="32.7524540" lon="35.2677300">
<ele>218.177002</ele>
<time>2013-04-26T06:58:06.000Z</time>
</trkpt>
<trkpt lat="32.7524480" lon="35.2679760">
<ele>219.001999</ele>
<time>2013-04-26T06:58:14.000Z</time>
</trkpt>
<trkpt lat="32.7524420" lon="35.2680120">
<ele>219.502991</ele>
<time>2013-04-26T06:58:15.000Z</time>
</trkpt>
<trkpt lat="32.7523730" lon="35.2682730">
<ele>222.388992</ele>
<time>2013-04-26T06:58:24.000Z</time>
</trkpt>
<trkpt lat="32.7522770" lon="35.2684840">
<ele>224.150009</ele>
<time>2013-04-26T06:58:33.000Z</time>
</trkpt>
<trkpt lat="32.7522160" lon="35.2687400">
<ele>226.129990</ele>
<time>2013-04-26T06:58:43.000Z</time>
</trkpt>
<trkpt lat="32.7521600" lon="35.2689960">
<ele>226.166016</ele>
<time>2013-04-26T06:58:53.000Z</time>
</trkpt>
<trkpt lat="32.7521790" lon="35.2692690">
<ele>227.125000</ele>
<time>2013-04-26T06:59:02.000Z</time>
</trkpt>
<trkpt lat="32.7521540" lon="35.2693120">
<ele>227.292984</ele>
<time>2013-04-26T06:59:11.000Z</time>
</trkpt>
<trkpt lat="32.7521200" lon="35.2693030">
<ele>227.041000</ele>
<time>2013-04-26T07:00:17.000Z</time>
</trkpt>
<trkpt lat="32.7521260" lon="35.2693610">
<ele>227.466003</ele>
<time>2013-04-26T07:06:21.000Z</time>
</trkpt>
<trkpt lat="32.7521050" lon="35.2693710">
<ele>227.858002</ele>
<time>2013-04-26T07:06:38.000Z</time>
</trkpt>
<trkpt lat="32.7520620" lon="35.2693890">
<ele>228.205994</ele>
<time>2013-04-26T07:07:04.000Z</time>
</trkpt>
<trkpt lat="32.7520040" lon="35.2693390">
<ele>228.751007</ele>
<time>2013-04-26T07:07:18.000Z</time>
</trkpt>
<trkpt lat="32.7520070" lon="35.2693140">
<ele>229.011993</ele>
<time>2013-04-26T07:07:28.000Z</time>
</trkpt>
<trkpt lat="32.7520400" lon="35.2690230">
<ele>228.959991</ele>
<time>2013-04-26T07:07:39.000Z</time>
</trkpt>
<trkpt lat="32.7520170" lon="35.2686260">
<ele>229.582993</ele>
<time>2013-04-26T07:07:49.000Z</time>
</trkpt>
<trkpt lat="32.7519680" lon="35.2682940">
<ele>229.735001</ele>
<time>2013-04-26T07:07:58.000Z</time>
</trkpt>
<trkpt lat="32.7518660" lon="35.2681980">
<ele>231.329987</ele>
<time>2013-04-26T07:08:03.000Z</time>
</trkpt>
<trkpt lat="32.7516440" lon="35.2679410">
<ele>232.363007</ele>
<time>2013-04-26T07:08:14.000Z</time>
</trkpt>
<trkpt lat="32.7513800" lon="35.2679680">
<ele>234.252014</ele>
<time>2013-04-26T07:08:23.000Z</time>
</trkpt>
<trkpt lat="32.7511540" lon="35.2680000">
<ele>236.894012</ele>
<time>2013-04-26T07:08:31.000Z</time>
</trkpt>
<trkpt lat="32.7510690" lon="35.2680200">
<ele>238.012009</ele>
<time>2013-04-26T07:08:35.000Z</time>
</trkpt>
<trkpt lat="32.7508500" lon="35.2680410">
<ele>238.505997</ele>
<time>2013-04-26T07:08:44.000Z</time>
</trkpt>
<trkpt lat="32.7506280" lon="35.2681000">
<ele>239.067993</ele>
<time>2013-04-26T07:08:52.000Z</time>
</trkpt>
<trkpt lat="32.7503730" lon="35.2681190">
<ele>240.052002</ele>
<time>2013-04-26T07:09:01.000Z</time>
</trkpt>
<trkpt lat="32.7501090" lon="35.2681200">
<ele>242.095993</ele>
<time>2013-04-26T07:09:10.000Z</time>
</trkpt>
<trkpt lat="32.7498410" lon="35.2681430">
<ele>243.238998</ele>
<time>2013-04-26T07:09:20.000Z</time>
</trkpt>
<trkpt lat="32.7495450" lon="35.2681480">
<ele>243.042007</ele>
<time>2013-04-26T07:09:30.000Z</time>
</trkpt>
<trkpt lat="32.7493460" lon="35.2682590">
<ele>243.148987</ele>
<time>2013-04-26T07:09:39.000Z</time>
</trkpt>
<trkpt lat="32.7492910" lon="35.2682640">
<ele>243.011993</ele>
<time>2013-04-26T07:09:41.000Z</time>
</trkpt>
<trkpt lat="32.7491760" lon="35.2682320">
<ele>242.808990</ele>
<time>2013-04-26T07:09:44.000Z</time>
</trkpt>
<trkpt lat="32.7490380" lon="35.2679400">
<ele>241.312988</ele>
<time>2013-04-26T07:09:51.000Z</time>
</trkpt>
<trkpt lat="32.7490570" lon="35.2677100">
<ele>240.300995</ele>
<time>2013-04-26T07:09:56.000Z</time>
</trkpt>
<trkpt lat="32.7492470" lon="35.2673480">
<ele>240.733002</ele>
<time>2013-04-26T07:10:05.000Z</time>
</trkpt>
<trkpt lat="32.7494570" lon="35.2670350">
<ele>240.475998</ele>
<time>2013-04-26T07:10:15.000Z</time>
</trkpt>
<trkpt lat="32.7495930" lon="35.2667990">
<ele>242.658997</ele>
<time>2013-04-26T07:10:22.000Z</time>
</trkpt>
<trkpt lat="32.7497250" lon="35.2664260">
<ele>243.387009</ele>
<time>2013-04-26T07:10:33.000Z</time>
</trkpt>
<trkpt lat="32.7498110" lon="35.2660520">
<ele>245.324005</ele>
<time>2013-04-26T07:10:45.000Z</time>
</trkpt>
<trkpt lat="32.7498410" lon="35.2659230">
<ele>245.134995</ele>
<time>2013-04-26T07:10:49.000Z</time>
</trkpt>
<trkpt lat="32.7498590" lon="35.2657790">
<ele>244.412003</ele>
<time>2013-04-26T07:10:54.000Z</time>
</trkpt>
<trkpt lat="32.7497200" lon="35.2655470">
<ele>246.207001</ele>
<time>2013-04-26T07:11:02.000Z</time>
</trkpt>
<trkpt lat="32.7495090" lon="35.2653560">
<ele>247.494995</ele>
<time>2013-04-26T07:11:12.000Z</time>
</trkpt>
<trkpt lat="32.7494360" lon="35.2653800">
<ele>247.534988</ele>
<time>2013-04-26T07:11:15.000Z</time>
</trkpt>
<trkpt lat="32.7494230" lon="35.2654840">
<ele>248.639008</ele>
<time>2013-04-26T07:11:20.000Z</time>
</trkpt>
<trkpt lat="32.7494990" lon="35.2656540">
<ele>249.053009</ele>
<time>2013-04-26T07:11:27.000Z</time>
</trkpt>
<trkpt lat="32.7494620" lon="35.2657450">
<ele>248.841995</ele>
<time>2013-04-26T07:11:31.000Z</time>
</trkpt>
<trkpt lat="32.7492770" lon="35.2657870">
<ele>251.441010</ele>
<time>2013-04-26T07:11:39.000Z</time>
</trkpt>
<trkpt lat="32.7492030" lon="35.2659090">
<ele>253.091995</ele>
<time>2013-04-26T07:11:45.000Z</time>
</trkpt>
<trkpt lat="32.7491720" lon="35.2659840">
<ele>251.956985</ele>
<time>2013-04-26T07:11:48.000Z</time>
</trkpt>
<trkpt lat="32.7490400" lon="35.2661990">
<ele>253.522995</ele>
<time>2013-04-26T07:11:57.000Z</time>
</trkpt>
<trkpt lat="32.7490060" lon="35.2663730">
<ele>252.934998</ele>
<time>2013-04-26T07:12:02.000Z</time>
</trkpt>
<trkpt lat="32.7489540" lon="35.2664120">
<ele>254.014008</ele>
<time>2013-04-26T07:12:04.000Z</time>
</trkpt>
<trkpt lat="32.7488950" lon="35.2664130">
<ele>254.088989</ele>
<time>2013-04-26T07:12:06.000Z</time>
</trkpt>
<trkpt lat="32.7488360" lon="35.2664030">
<ele>254.408997</ele>
<time>2013-04-26T07:12:08.000Z</time>
</trkpt>
<trkpt lat="32.7487290" lon="35.2664850">
<ele>255.401001</ele>
<time>2013-04-26T07:12:14.000Z</time>
</trkpt>
<trkpt lat="32.7487170" lon="35.2665830">
<ele>253.964996</ele>
<time>2013-04-26T07:12:17.000Z</time>
</trkpt>
<trkpt lat="32.7487100" lon="35.2668390">
<ele>254.845001</ele>
<time>2013-04-26T07:12:24.000Z</time>
</trkpt>
<trkpt lat="32.7486820" lon="35.2669090">
<ele>254.757004</ele>
<time>2013-04-26T07:12:26.000Z</time>
</trkpt>
<trkpt lat="32.7485700" lon="35.2673400">
<ele>253.209991</ele>
<time>2013-04-26T07:12:38.000Z</time>
</trkpt>
<trkpt lat="32.7485200" lon="35.2675610">
<ele>254.626007</ele>
<time>2013-04-26T07:12:44.000Z</time>
</trkpt>
<trkpt lat="32.7483590" lon="35.2677570">
<ele>255.202011</ele>
<time>2013-04-26T07:12:52.000Z</time>
</trkpt>
<trkpt lat="32.7483370" lon="35.2677720">
<ele>256.070007</ele>
<time>2013-04-26T07:12:53.000Z</time>
</trkpt>
<trkpt lat="32.7482930" lon="35.2680380">
<ele>256.865997</ele>
<time>2013-04-26T07:13:02.000Z</time>
</trkpt>
<trkpt lat="32.7481720" lon="35.2682520">
<ele>258.911987</ele>
<time>2013-04-26T07:13:11.000Z</time>
</trkpt>
<trkpt lat="32.7482420" lon="35.2683860">
<ele>259.188995</ele>
<time>2013-04-26T07:13:17.000Z</time>
</trkpt>
<trkpt lat="32.7482490" lon="35.2684460">
<ele>259.967010</ele>
<time>2013-04-26T07:13:19.000Z</time>
</trkpt>
<trkpt lat="32.7482560" lon="35.2687160">
<ele>261.265015</ele>
<time>2013-04-26T07:13:28.000Z</time>
</trkpt>
<trkpt lat="32.7482380" lon="35.2688280">
<ele>262.079010</ele>
<time>2013-04-26T07:13:32.000Z</time>
</trkpt>
<trkpt lat="32.7482870" lon="35.2690370">
<ele>261.967987</ele>
<time>2013-04-26T07:13:39.000Z</time>
</trkpt>
<trkpt lat="32.7482420" lon="35.2690900">
<ele>263.246002</ele>
<time>2013-04-26T07:13:42.000Z</time>
</trkpt>
<trkpt lat="32.7482180" lon="35.2690800">
<ele>263.976990</ele>
<time>2013-04-26T07:13:43.000Z</time>
</trkpt>
<trkpt lat="32.7479780" lon="35.2689260">
<ele>264.971985</ele>
<time>2013-04-26T07:13:52.000Z</time>
</trkpt>
<trkpt lat="32.7478960" lon="35.2689460">
<ele>264.927002</ele>
<time>2013-04-26T07:13:56.000Z</time>
</trkpt>
<trkpt lat="32.7478600" lon="35.2690980">
<ele>265.164001</ele>
<time>2013-04-26T07:14:01.000Z</time>
</trkpt>
<trkpt lat="32.7477070" lon="35.2691900">
<ele>267.050995</ele>
<time>2013-04-26T07:14:09.000Z</time>
</trkpt>
<trkpt lat="32.7477050" lon="35.2692700">
<ele>266.813995</ele>
<time>2013-04-26T07:14:12.000Z</time>
</trkpt>
<trkpt lat="32.7476840" lon="35.2693260">
<ele>265.542999</ele>
<time>2013-04-26T07:14:14.000Z</time>
</trkpt>
<trkpt lat="32.7475870" lon="35.2695360">
<ele>268.197021</ele>
<time>2013-04-26T07:14:22.000Z</time>
</trkpt>
<trkpt lat="32.7475410" lon="35.2696000">
<ele>268.294006</ele>
<time>2013-04-26T07:14:25.000Z</time>
</trkpt>
<trkpt lat="32.7473340" lon="35.2697730">
<ele>270.286987</ele>
<time>2013-04-26T07:14:36.000Z</time>
</trkpt>
<trkpt lat="32.7472900" lon="35.2700640">
<ele>269.492004</ele>
<time>2013-04-26T07:14:46.000Z</time>
</trkpt>
<trkpt lat="32.7472810" lon="35.2701420">
<ele>269.737000</ele>
<time>2013-04-26T07:14:53.000Z</time>
</trkpt>
<trkpt lat="32.7472750" lon="35.2701400">
<ele>270.036011</ele>
<time>2013-04-26T07:15:06.000Z</time>
</trkpt>
<trkpt lat="32.7472800" lon="35.2701420">
<ele>268.979980</ele>
<time>2013-04-26T07:15:37.000Z</time>
</trkpt>
<trkpt lat="32.7473010" lon="35.2701570">
<ele>269.346008</ele>
<time>2013-04-26T07:16:19.000Z</time>
</trkpt>
<trkpt lat="32.7472700" lon="35.2701420">
<ele>269.550995</ele>
<time>2013-04-26T07:16:41.000Z</time>
</trkpt>
<trkpt lat="32.7472690" lon="35.2701340">
<ele>270.173004</ele>
<time>2013-04-26T07:17:06.000Z</time>
</trkpt>
<trkpt lat="32.7472470" lon="35.2701590">
<ele>270.589020</ele>
<time>2013-04-26T07:17:24.000Z</time>
</trkpt>
<trkpt lat="32.7471680" lon="35.2701680">
<ele>270.917999</ele>
<time>2013-04-26T07:17:30.000Z</time>
</trkpt>
<trkpt lat="32.7470360" lon="35.2703910">
<ele>271.108002</ele>
<time>2013-04-26T07:17:40.000Z</time>
</trkpt>
<trkpt lat="32.7469000" lon="35.2706620">
<ele>271.529999</ele>
<time>2013-04-26T07:17:50.000Z</time>
</trkpt>
<trkpt lat="32.7467740" lon="35.2706540">
<ele>273.091003</ele>
<time>2013-04-26T07:17:55.000Z</time>
</trkpt>
<trkpt lat="32.7467340" lon="35.2706220">
<ele>273.528992</ele>
<time>2013-04-26T07:17:57.000Z</time>
</trkpt>
<trkpt lat="32.7466890" lon="35.2704370">
<ele>274.098999</ele>
<time>2013-04-26T07:18:03.000Z</time>
</trkpt>
<trkpt lat="32.7465920" lon="35.2704020">
<ele>274.546997</ele>
<time>2013-04-26T07:18:07.000Z</time>
</trkpt>
<trkpt lat="32.7463470" lon="35.2704140">
<ele>274.261993</ele>
<time>2013-04-26T07:18:16.000Z</time>
</trkpt>
<trkpt lat="32.7462770" lon="35.2704980">
<ele>275.372986</ele>
<time>2013-04-26T07:18:20.000Z</time>
</trkpt>
<trkpt lat="32.7462340" lon="35.2705300">
<ele>276.339996</ele>
<time>2013-04-26T07:18:23.000Z</time>
</trkpt>
<trkpt lat="32.7461990" lon="35.2705200">
<ele>276.677002</ele>
<time>2013-04-26T07:18:26.000Z</time>
</trkpt>
<trkpt lat="32.7461330" lon="35.2703030">
<ele>277.114990</ele>
<time>2013-04-26T07:18:34.000Z</time>
</trkpt>
<trkpt lat="32.7460090" lon="35.2702220">
<ele>277.121002</ele>
<time>2013-04-26T07:18:40.000Z</time>
</trkpt>
<trkpt lat="32.7459170" lon="35.2701570">
<ele>276.835022</ele>
<time>2013-04-26T07:18:44.000Z</time>
</trkpt>
<trkpt lat="32.7457500" lon="35.2700910">
<ele>276.812012</ele>
<time>2013-04-26T07:18:51.000Z</time>
</trkpt>
<trkpt lat="32.7455910" lon="35.2700790">
<ele>276.867981</ele>
<time>2013-04-26T07:18:57.000Z</time>
</trkpt>
<trkpt lat="32.7454940" lon="35.2700960">
<ele>277.828003</ele>
<time>2013-04-26T07:19:01.000Z</time>
</trkpt>
<trkpt lat="32.7453470" lon="35.2700560">
<ele>278.483002</ele>
<time>2013-04-26T07:19:07.000Z</time>
</trkpt>
<trkpt lat="32.7452980" lon="35.2700340">
<ele>278.110992</ele>
<time>2013-04-26T07:19:09.000Z</time>
</trkpt>
<trkpt lat="32.7450530" lon="35.2700680">
<ele>278.546997</ele>
<time>2013-04-26T07:19:19.000Z</time>
</trkpt>
<trkpt lat="32.7450000" lon="35.2700650">
<ele>279.441986</ele>
<time>2013-04-26T07:19:21.000Z</time>
</trkpt>
<trkpt lat="32.7449590" lon="35.2700990">
<ele>278.510010</ele>
<time>2013-04-26T07:19:23.000Z</time>
</trkpt>
<trkpt lat="32.7448310" lon="35.2701580">
<ele>280.584015</ele>
<time>2013-04-26T07:19:30.000Z</time>
</trkpt>
<trkpt lat="32.7448180" lon="35.2701540">
<ele>280.212006</ele>
<time>2013-04-26T07:19:31.000Z</time>
</trkpt>
<trkpt lat="32.7446450" lon="35.2699930">
<ele>279.716980</ele>
<time>2013-04-26T07:19:41.000Z</time>
</trkpt>
<trkpt lat="32.7444810" lon="35.2697480">
<ele>279.987000</ele>
<time>2013-04-26T07:19:51.000Z</time>
</trkpt>
<trkpt lat="32.7443450" lon="35.2696590">
<ele>280.058990</ele>
<time>2013-04-26T07:19:55.000Z</time>
</trkpt>
<trkpt lat="32.7440330" lon="35.2696810">
<ele>280.196991</ele>
<time>2013-04-26T07:20:03.000Z</time>
</trkpt>
<trkpt lat="32.7438080" lon="35.2696410">
<ele>279.365997</ele>
<time>2013-04-26T07:20:08.000Z</time>
</trkpt>
<trkpt lat="32.7435010" lon="35.2696110">
<ele>278.833008</ele>
<time>2013-04-26T07:20:15.000Z</time>
</trkpt>
<trkpt lat="32.7431690" lon="35.2695770">
<ele>277.993011</ele>
<time>2013-04-26T07:20:22.000Z</time>
</trkpt>
<trkpt lat="32.7430220" lon="35.2694410">
<ele>277.162994</ele>
<time>2013-04-26T07:20:27.000Z</time>
</trkpt>
<trkpt lat="32.7430290" lon="35.2692080">
<ele>274.404999</ele>
<time>2013-04-26T07:20:34.000Z</time>
</trkpt>
<trkpt lat="32.7429210" lon="35.2692020">
<ele>273.296021</ele>
<time>2013-04-26T07:20:40.000Z</time>
</trkpt>
<trkpt lat="32.7428670" lon="35.2692380">
<ele>273.102020</ele>
<time>2013-04-26T07:20:42.000Z</time>
</trkpt>
<trkpt lat="32.7426980" lon="35.2692780">
<ele>271.138000</ele>
<time>2013-04-26T07:20:46.000Z</time>
</trkpt>
<trkpt lat="32.7426610" lon="35.2692790">
<ele>270.804993</ele>
<time>2013-04-26T07:20:47.000Z</time>
</trkpt>
<trkpt lat="32.7425860" lon="35.2692370">
<ele>268.816010</ele>
<time>2013-04-26T07:20:50.000Z</time>
</trkpt>
<trkpt lat="32.7425640" lon="35.2692150">
<ele>268.101990</ele>
<time>2013-04-26T07:20:51.000Z</time>
</trkpt>
<trkpt lat="32.7425020" lon="35.2691880">
<ele>265.960022</ele>
<time>2013-04-26T07:20:54.000Z</time>
</trkpt>
<trkpt lat="32.7424080" lon="35.2690880">
<ele>264.114014</ele>
<time>2013-04-26T07:21:02.000Z</time>
</trkpt>
<trkpt lat="32.7424330" lon="35.2690280">
<ele>260.572998</ele>
<time>2013-04-26T07:21:04.000Z</time>
</trkpt>
<trkpt lat="32.7424670" lon="35.2689600">
<ele>259.453003</ele>
<time>2013-04-26T07:21:06.000Z</time>
</trkpt>
<trkpt lat="32.7424330" lon="35.2687420">
<ele>257.302002</ele>
<time>2013-04-26T07:21:12.000Z</time>
</trkpt>
<trkpt lat="32.7423470" lon="35.2686130">
<ele>255.800003</ele>
<time>2013-04-26T07:21:17.000Z</time>
</trkpt>
<trkpt lat="32.7422000" lon="35.2683760">
<ele>252.822998</ele>
<time>2013-04-26T07:21:25.000Z</time>
</trkpt>
<trkpt lat="32.7421640" lon="35.2683180">
<ele>252.750000</ele>
<time>2013-04-26T07:21:27.000Z</time>
</trkpt>
<trkpt lat="32.7421140" lon="35.2682150">
<ele>251.757004</ele>
<time>2013-04-26T07:21:30.000Z</time>
</trkpt>
<trkpt lat="32.7421340" lon="35.2680510">
<ele>251.044006</ele>
<time>2013-04-26T07:21:36.000Z</time>
</trkpt>
<trkpt lat="32.7420960" lon="35.2678810">
<ele>250.401993</ele>
<time>2013-04-26T07:21:43.000Z</time>
</trkpt>
<trkpt lat="32.7420870" lon="35.2677220">
<ele>248.705994</ele>
<time>2013-04-26T07:21:48.000Z</time>
</trkpt>
<trkpt lat="32.7420370" lon="35.2676290">
<ele>248.138000</ele>
<time>2013-04-26T07:21:52.000Z</time>
</trkpt>
<trkpt lat="32.7419000" lon="35.2673820">
<ele>246.774002</ele>
<time>2013-04-26T07:22:01.000Z</time>
</trkpt>
<trkpt lat="32.7418390" lon="35.2671010">
<ele>244.709991</ele>
<time>2013-04-26T07:22:09.000Z</time>
</trkpt>
<trkpt lat="32.7417170" lon="35.2668420">
<ele>242.950012</ele>
<time>2013-04-26T07:22:16.000Z</time>
</trkpt>
<trkpt lat="32.7416680" lon="35.2665890">
<ele>240.554001</ele>
<time>2013-04-26T07:22:22.000Z</time>
</trkpt>
<trkpt lat="32.7415810" lon="35.2663500">
<ele>239.195999</ele>
<time>2013-04-26T07:22:27.000Z</time>
</trkpt>
<trkpt lat="32.7415090" lon="35.2661510">
<ele>236.820999</ele>
<time>2013-04-26T07:22:31.000Z</time>
</trkpt>
<trkpt lat="32.7414540" lon="35.2659220">
<ele>236.351990</ele>
<time>2013-04-26T07:22:36.000Z</time>
</trkpt>
<trkpt lat="32.7413350" lon="35.2656650">
<ele>234.250000</ele>
<time>2013-04-26T07:22:43.000Z</time>
</trkpt>
<trkpt lat="32.7412260" lon="35.2653610">
<ele>233.244995</ele>
<time>2013-04-26T07:22:50.000Z</time>
</trkpt>
<trkpt lat="32.7411610" lon="35.2651460">
<ele>232.540009</ele>
<time>2013-04-26T07:22:54.000Z</time>
</trkpt>
<trkpt lat="32.7410120" lon="35.2648220">
<ele>231.306000</ele>
<time>2013-04-26T07:23:02.000Z</time>
</trkpt>
<trkpt lat="32.7409920" lon="35.2648190">
<ele>231.904007</ele>
<time>2013-04-26T07:23:09.000Z</time>
</trkpt>
<trkpt lat="32.7409640" lon="35.2648230">
<ele>232.212006</ele>
<time>2013-04-26T07:23:36.000Z</time>
</trkpt>
<trkpt lat="32.7409820" lon="35.2647520">
<ele>231.352997</ele>
<time>2013-04-26T07:24:23.000Z</time>
</trkpt>
<trkpt lat="32.7409630" lon="35.2647650">
<ele>230.981003</ele>
<time>2013-04-26T07:24:52.000Z</time>
</trkpt>
<trkpt lat="32.7409550" lon="35.2647820">
<ele>231.414993</ele>
<time>2013-04-26T07:25:13.000Z</time>
</trkpt>
<trkpt lat="32.7409610" lon="35.2647650">
<ele>231.460999</ele>
<time>2013-04-26T07:25:16.000Z</time>
</trkpt>
<trkpt lat="32.7409870" lon="35.2646320">
<ele>226.664993</ele>
<time>2013-04-26T07:25:22.000Z</time>
</trkpt>
<trkpt lat="32.7410080" lon="35.2646100">
<ele>225.940002</ele>
<time>2013-04-26T07:25:23.000Z</time>
</trkpt>
<trkpt lat="32.7410320" lon="35.2643120">
<ele>223.470001</ele>
<time>2013-04-26T07:25:31.000Z</time>
</trkpt>
<trkpt lat="32.7410190" lon="35.2642340">
<ele>222.364014</ele>
<time>2013-04-26T07:25:33.000Z</time>
</trkpt>
<trkpt lat="32.7410090" lon="35.2638500">
<ele>219.036011</ele>
<time>2013-04-26T07:25:43.000Z</time>
</trkpt>
<trkpt lat="32.7410030" lon="35.2638100">
<ele>219.012009</ele>
<time>2013-04-26T07:25:44.000Z</time>
</trkpt>
<trkpt lat="32.7409480" lon="35.2636770">
<ele>218.843002</ele>
<time>2013-04-26T07:25:48.000Z</time>
</trkpt>
<trkpt lat="32.7409260" lon="35.2636050">
<ele>218.910995</ele>
<time>2013-04-26T07:25:50.000Z</time>
</trkpt>
<trkpt lat="32.7409860" lon="35.2633960">
<ele>218.533005</ele>
<time>2013-04-26T07:25:56.000Z</time>
</trkpt>
<trkpt lat="32.7410240" lon="35.2633170">
<ele>219.289001</ele>
<time>2013-04-26T07:25:59.000Z</time>
</trkpt>
<trkpt lat="32.7410390" lon="35.2630840">
<ele>219.121994</ele>
<time>2013-04-26T07:26:05.000Z</time>
</trkpt>
<trkpt lat="32.7410490" lon="35.2630520">
<ele>218.936996</ele>
<time>2013-04-26T07:26:06.000Z</time>
</trkpt>
<trkpt lat="32.7410620" lon="35.2629910">
<ele>219.768997</ele>
<time>2013-04-26T07:26:08.000Z</time>
</trkpt>
<trkpt lat="32.7411240" lon="35.2627780">
<ele>220.403992</ele>
<time>2013-04-26T07:26:14.000Z</time>
</trkpt>
<trkpt lat="32.7411380" lon="35.2626470">
<ele>219.162003</ele>
<time>2013-04-26T07:26:18.000Z</time>
</trkpt>
<trkpt lat="32.7412230" lon="35.2623930">
<ele>220.583008</ele>
<time>2013-04-26T07:26:26.000Z</time>
</trkpt>
<trkpt lat="32.7412370" lon="35.2623360">
<ele>220.434006</ele>
<time>2013-04-26T07:26:28.000Z</time>
</trkpt>
<trkpt lat="32.7413010" lon="35.2622270">
<ele>220.933014</ele>
<time>2013-04-26T07:26:32.000Z</time>
</trkpt>
<trkpt lat="32.7415020" lon="35.2619180">
<ele>221.595001</ele>
<time>2013-04-26T07:26:45.000Z</time>
</trkpt>
<trkpt lat="32.7416430" lon="35.2617410">
<ele>223.430008</ele>
<time>2013-04-26T07:26:53.000Z</time>
</trkpt>
<trkpt lat="32.7416990" lon="35.2616850">
<ele>224.352005</ele>
<time>2013-04-26T07:26:56.000Z</time>
</trkpt>
<trkpt lat="32.7418340" lon="35.2614810">
<ele>224.638016</ele>
<time>2013-04-26T07:27:05.000Z</time>
</trkpt>
<trkpt lat="32.7419340" lon="35.2612910">
<ele>222.298004</ele>
<time>2013-04-26T07:27:13.000Z</time>
</trkpt>
<trkpt lat="32.7419210" lon="35.2610820">
<ele>219.510010</ele>
<time>2013-04-26T07:27:18.000Z</time>
</trkpt>
<trkpt lat="32.7420250" lon="35.2609190">
<ele>218.337997</ele>
<time>2013-04-26T07:27:24.000Z</time>
</trkpt>
<trkpt lat="32.7420710" lon="35.2608910">
<ele>218.975998</ele>
<time>2013-04-26T07:27:26.000Z</time>
</trkpt>
<trkpt lat="32.7422030" lon="35.2608070">
<ele>219.295990</ele>
<time>2013-04-26T07:27:31.000Z</time>
</trkpt>
<trkpt lat="32.7423900" lon="35.2605500">
<ele>217.916000</ele>
<time>2013-04-26T07:27:40.000Z</time>
</trkpt>
<trkpt lat="32.7424790" lon="35.2604850">
<ele>217.950989</ele>
<time>2013-04-26T07:27:43.000Z</time>
</trkpt>
<trkpt lat="32.7426400" lon="35.2605460">
<ele>217.569992</ele>
<time>2013-04-26T07:27:50.000Z</time>
</trkpt>
<trkpt lat="32.7427970" lon="35.2605850">
<ele>217.031998</ele>
<time>2013-04-26T07:27:55.000Z</time>
</trkpt>
<trkpt lat="32.7430780" lon="35.2606350">
<ele>213.698013</ele>
<time>2013-04-26T07:28:04.000Z</time>
</trkpt>
<trkpt lat="32.7433240" lon="35.2608310">
<ele>213.247009</ele>
<time>2013-04-26T07:28:12.000Z</time>
</trkpt>
<trkpt lat="32.7433520" lon="35.2608420">
<ele>213.901993</ele>
<time>2013-04-26T07:28:13.000Z</time>
</trkpt>
<trkpt lat="32.7434310" lon="35.2608040">
<ele>210.692001</ele>
<time>2013-04-26T07:28:16.000Z</time>
</trkpt>
<trkpt lat="32.7434540" lon="35.2607880">
<ele>209.979996</ele>
<time>2013-04-26T07:28:17.000Z</time>
</trkpt>
<trkpt lat="32.7435330" lon="35.2605740">
<ele>206.187988</ele>
<time>2013-04-26T07:28:24.000Z</time>
</trkpt>
<trkpt lat="32.7435850" lon="35.2604520">
<ele>204.007996</ele>
<time>2013-04-26T07:28:28.000Z</time>
</trkpt>
<trkpt lat="32.7435810" lon="35.2603500">
<ele>201.709991</ele>
<time>2013-04-26T07:28:31.000Z</time>
</trkpt>
<trkpt lat="32.7435630" lon="35.2602770">
<ele>200.594009</ele>
<time>2013-04-26T07:28:33.000Z</time>
</trkpt>
<trkpt lat="32.7435830" lon="35.2601710">
<ele>199.253998</ele>
<time>2013-04-26T07:28:36.000Z</time>
</trkpt>
<trkpt lat="32.7436050" lon="35.2601380">
<ele>198.657013</ele>
<time>2013-04-26T07:28:37.000Z</time>
</trkpt>
<trkpt lat="32.7437560" lon="35.2599410">
<ele>196.393005</ele>
<time>2013-04-26T07:28:43.000Z</time>
</trkpt>
<trkpt lat="32.7438200" lon="35.2598170">
<ele>194.912994</ele>
<time>2013-04-26T07:28:47.000Z</time>
</trkpt>
<trkpt lat="32.7439000" lon="35.2596560">
<ele>194.341995</ele>
<time>2013-04-26T07:28:52.000Z</time>
</trkpt>
<trkpt lat="32.7440030" lon="35.2593050">
<ele>193.041000</ele>
<time>2013-04-26T07:29:01.000Z</time>
</trkpt>
<trkpt lat="32.7441120" lon="35.2590460">
<ele>190.535995</ele>
<time>2013-04-26T07:29:08.000Z</time>
</trkpt>
<trkpt lat="32.7443140" lon="35.2587970">
<ele>189.778000</ele>
<time>2013-04-26T07:29:16.000Z</time>
</trkpt>
<trkpt lat="32.7443450" lon="35.2587080">
<ele>188.759003</ele>
<time>2013-04-26T07:29:18.000Z</time>
</trkpt>
<trkpt lat="32.7443940" lon="35.2586200">
<ele>188.557999</ele>
<time>2013-04-26T07:29:20.000Z</time>
</trkpt>
<trkpt lat="32.7445110" lon="35.2584550">
<ele>187.835999</ele>
<time>2013-04-26T07:29:24.000Z</time>
</trkpt>
<trkpt lat="32.7445850" lon="35.2583970">
<ele>187.334000</ele>
<time>2013-04-26T07:29:26.000Z</time>
</trkpt>
<trkpt lat="32.7446550" lon="35.2583880">
<ele>187.542007</ele>
<time>2013-04-26T07:29:28.000Z</time>
</trkpt>
<trkpt lat="32.7449010" lon="35.2583480">
<ele>188.997009</ele>
<time>2013-04-26T07:29:36.000Z</time>
</trkpt>
<trkpt lat="32.7450990" lon="35.2583070">
<ele>189.342987</ele>
<time>2013-04-26T07:29:43.000Z</time>
</trkpt>
<trkpt lat="32.7451510" lon="35.2582740">
<ele>189.097000</ele>
<time>2013-04-26T07:29:45.000Z</time>
</trkpt>
<trkpt lat="32.7453570" lon="35.2582090">
<ele>187.854004</ele>
<time>2013-04-26T07:29:51.000Z</time>
</trkpt>
<trkpt lat="32.7454950" lon="35.2582140">
<ele>188.507004</ele>
<time>2013-04-26T07:29:57.000Z</time>
</trkpt>
<trkpt lat="32.7458060" lon="35.2580820">
<ele>188.091995</ele>
<time>2013-04-26T07:30:07.000Z</time>
</trkpt>
<trkpt lat="32.7460490" lon="35.2580100">
<ele>189.282013</ele>
<time>2013-04-26T07:30:15.000Z</time>
</trkpt>
<trkpt lat="32.7463540" lon="35.2579140">
<ele>190.248001</ele>
<time>2013-04-26T07:30:26.000Z</time>
</trkpt>
<trkpt lat="32.7465790" lon="35.2578690">
<ele>191.526001</ele>
<time>2013-04-26T07:30:35.000Z</time>
</trkpt>
<trkpt lat="32.7466030" lon="35.2578600">
<ele>192.209000</ele>
<time>2013-04-26T07:30:36.000Z</time>
</trkpt>
<trkpt lat="32.7466780" lon="35.2577330">
<ele>191.746002</ele>
<time>2013-04-26T07:30:41.000Z</time>
</trkpt>
<trkpt lat="32.7467700" lon="35.2575290">
<ele>190.810013</ele>
<time>2013-04-26T07:30:49.000Z</time>
</trkpt>
<trkpt lat="32.7468100" lon="35.2572300">
<ele>190.254013</ele>
<time>2013-04-26T07:30:57.000Z</time>
</trkpt>
<trkpt lat="32.7467470" lon="35.2569270">
<ele>189.200989</ele>
<time>2013-04-26T07:31:05.000Z</time>
</trkpt>
<trkpt lat="32.7466950" lon="35.2566630">
<ele>188.647995</ele>
<time>2013-04-26T07:31:12.000Z</time>
</trkpt>
<trkpt lat="32.7466670" lon="35.2564890">
<ele>189.052002</ele>
<time>2013-04-26T07:31:17.000Z</time>
</trkpt>
<trkpt lat="32.7466200" lon="35.2561420">
<ele>188.888992</ele>
<time>2013-04-26T07:31:28.000Z</time>
</trkpt>
<trkpt lat="32.7465970" lon="35.2558680">
<ele>189.654007</ele>
<time>2013-04-26T07:31:36.000Z</time>
</trkpt>
<trkpt lat="32.7465880" lon="35.2557740">
<ele>189.655991</ele>
<time>2013-04-26T07:31:39.000Z</time>
</trkpt>
<trkpt lat="32.7465350" lon="35.2556710">
<ele>188.580002</ele>
<time>2013-04-26T07:31:47.000Z</time>
</trkpt>
<trkpt lat="32.7465590" lon="35.2556130">
<ele>189.328003</ele>
<time>2013-04-26T07:31:57.000Z</time>
</trkpt>
<trkpt lat="32.7465580" lon="35.2556120">
<ele>190.384003</ele>
<time>2013-04-26T07:32:16.000Z</time>
</trkpt>
<trkpt lat="32.7465560" lon="35.2556050">
<ele>190.384995</ele>
<time>2013-04-26T07:32:17.000Z</time>
</trkpt>
<trkpt lat="32.7465730" lon="35.2554680">
<ele>191.904999</ele>
<time>2013-04-26T07:32:24.000Z</time>
</trkpt>
<trkpt lat="32.7465500" lon="35.2553390">
<ele>191.139999</ele>
<time>2013-04-26T07:32:29.000Z</time>
</trkpt>
<trkpt lat="32.7465570" lon="35.2550960">
<ele>192.260010</ele>
<time>2013-04-26T07:32:37.000Z</time>
</trkpt>
<trkpt lat="32.7465570" lon="35.2548260">
<ele>193.468002</ele>
<time>2013-04-26T07:32:46.000Z</time>
</trkpt>
<trkpt lat="32.7465130" lon="35.2546080">
<ele>193.695007</ele>
<time>2013-04-26T07:32:53.000Z</time>
</trkpt>
<trkpt lat="32.7464440" lon="35.2542460">
<ele>195.483994</ele>
<time>2013-04-26T07:33:03.000Z</time>
</trkpt>
<trkpt lat="32.7464450" lon="35.2541820">
<ele>196.285995</ele>
<time>2013-04-26T07:33:05.000Z</time>
</trkpt>
<trkpt lat="32.7465020" lon="35.2539510">
<ele>197.217010</ele>
<time>2013-04-26T07:33:14.000Z</time>
</trkpt>
<trkpt lat="32.7465070" lon="35.2537030">
<ele>200.347015</ele>
<time>2013-04-26T07:33:22.000Z</time>
</trkpt>
<trkpt lat="32.7465130" lon="35.2536760">
<ele>200.292999</ele>
<time>2013-04-26T07:33:23.000Z</time>
</trkpt>
<trkpt lat="32.7466060" lon="35.2534080">
<ele>201.044006</ele>
<time>2013-04-26T07:33:33.000Z</time>
</trkpt>
<trkpt lat="32.7467080" lon="35.2532440">
<ele>202.243011</ele>
<time>2013-04-26T07:33:40.000Z</time>
</trkpt>
<trkpt lat="32.7467610" lon="35.2531420">
<ele>203.091003</ele>
<time>2013-04-26T07:33:45.000Z</time>
</trkpt>
<trkpt lat="32.7468720" lon="35.2528870">
<ele>201.660995</ele>
<time>2013-04-26T07:33:56.000Z</time>
</trkpt>
<trkpt lat="32.7469270" lon="35.2527870">
<ele>201.563995</ele>
<time>2013-04-26T07:34:00.000Z</time>
</trkpt>
<trkpt lat="32.7469630" lon="35.2525620">
<ele>201.239990</ele>
<time>2013-04-26T07:34:10.000Z</time>
</trkpt>
<trkpt lat="32.7470660" lon="35.2522690">
<ele>200.332993</ele>
<time>2013-04-26T07:34:19.000Z</time>
</trkpt>
<trkpt lat="32.7471800" lon="35.2520230">
<ele>199.875000</ele>
<time>2013-04-26T07:34:29.000Z</time>
</trkpt>
<trkpt lat="32.7471900" lon="35.2520060">
<ele>199.873993</ele>
<time>2013-04-26T07:34:30.000Z</time>
</trkpt>
<trkpt lat="32.7472130" lon="35.2519250">
<ele>199.471985</ele>
<time>2013-04-26T07:34:38.000Z</time>
</trkpt>
<trkpt lat="32.7472040" lon="35.2519260">
<ele>199.132996</ele>
<time>2013-04-26T07:34:50.000Z</time>
</trkpt>
<trkpt lat="32.7471570" lon="35.2518110">
<ele>198.316986</ele>
<time>2013-04-26T07:35:27.000Z</time>
</trkpt>
<trkpt lat="32.7470910" lon="35.2515650">
<ele>197.713989</ele>
<time>2013-04-26T07:35:34.000Z</time>
</trkpt>
<trkpt lat="32.7474670" lon="35.2509460">
<ele>195.936005</ele>
<time>2013-04-26T07:35:49.000Z</time>
</trkpt>
<trkpt lat="32.7478430" lon="35.2503450">
<ele>194.796005</ele>
<time>2013-04-26T07:36:02.000Z</time>
</trkpt>
<trkpt lat="32.7478710" lon="35.2503080">
<ele>194.469009</ele>
<time>2013-04-26T07:36:03.000Z</time>
</trkpt>
<trkpt lat="32.7482720" lon="35.2496980">
<ele>191.178009</ele>
<time>2013-04-26T07:36:15.000Z</time>
</trkpt>
<trkpt lat="32.7484030" lon="35.2494960">
<ele>189.902008</ele>
<time>2013-04-26T07:36:18.000Z</time>
</trkpt>
<trkpt lat="32.7485880" lon="35.2492200">
<ele>187.451996</ele>
<time>2013-04-26T07:36:22.000Z</time>
</trkpt>
<trkpt lat="32.7489110" lon="35.2487410">
<ele>184.843994</ele>
<time>2013-04-26T07:36:29.000Z</time>
</trkpt>
<trkpt lat="32.7490040" lon="35.2486160">
<ele>183.741989</ele>
<time>2013-04-26T07:36:31.000Z</time>
</trkpt>
<trkpt lat="32.7495350" lon="35.2478960">
<ele>180.956009</ele>
<time>2013-04-26T07:36:44.000Z</time>
</trkpt>
<trkpt lat="32.7497380" lon="35.2476270">
<ele>179.083008</ele>
<time>2013-04-26T07:36:49.000Z</time>
</trkpt>
<trkpt lat="32.7502060" lon="35.2470270">
<ele>176.149994</ele>
<time>2013-04-26T07:37:01.000Z</time>
</trkpt>
<trkpt lat="32.7502500" lon="35.2469810">
<ele>175.947998</ele>
<time>2013-04-26T07:37:02.000Z</time>
</trkpt>
<trkpt lat="32.7505470" lon="35.2466760">
<ele>172.971008</ele>
<time>2013-04-26T07:37:09.000Z</time>
</trkpt>
<trkpt lat="32.7508360" lon="35.2463980">
<ele>169.745010</ele>
<time>2013-04-26T07:37:16.000Z</time>
</trkpt>
<trkpt lat="32.7508810" lon="35.2463600">
<ele>169.503998</ele>
<time>2013-04-26T07:37:17.000Z</time>
</trkpt>
<trkpt lat="32.7510220" lon="35.2462430">
<ele>168.714005</ele>
<time>2013-04-26T07:37:20.000Z</time>
</trkpt>
<trkpt lat="32.7511270" lon="35.2461910">
<ele>167.490005</ele>
<time>2013-04-26T07:37:22.000Z</time>
</trkpt>
<trkpt lat="32.7512980" lon="35.2461640">
<ele>165.386002</ele>
<time>2013-04-26T07:37:25.000Z</time>
</trkpt>
<trkpt lat="32.7513960" lon="35.2461640">
<ele>163.451996</ele>
<time>2013-04-26T07:37:27.000Z</time>
</trkpt>
<trkpt lat="32.7515260" lon="35.2459860">
<ele>163.343002</ele>
<time>2013-04-26T07:37:33.000Z</time>
</trkpt>
<trkpt lat="32.7514160" lon="35.2457150">
<ele>163.229996</ele>
<time>2013-04-26T07:37:41.000Z</time>
</trkpt>
<trkpt lat="32.7512650" lon="35.2457030">
<ele>161.806992</ele>
<time>2013-04-26T07:37:46.000Z</time>
</trkpt>
<trkpt lat="32.7511640" lon="35.2456810">
<ele>161.636002</ele>
<time>2013-04-26T07:37:50.000Z</time>
</trkpt>
<trkpt lat="32.7509640" lon="35.2454700">
<ele>162.052002</ele>
<time>2013-04-26T07:37:59.000Z</time>
</trkpt>
<trkpt lat="32.7506800" lon="35.2452330">
<ele>163.274002</ele>
<time>2013-04-26T07:38:09.000Z</time>
</trkpt>
<trkpt lat="32.7504170" lon="35.2447330">
<ele>163.725006</ele>
<time>2013-04-26T07:38:23.000Z</time>
</trkpt>
<trkpt lat="32.7500450" lon="35.2441850">
<ele>165.481003</ele>
<time>2013-04-26T07:38:40.000Z</time>
</trkpt>
<trkpt lat="32.7499560" lon="35.2440420">
<ele>166.600998</ele>
<time>2013-04-26T07:38:45.000Z</time>
</trkpt>
<trkpt lat="32.7499970" lon="35.2437180">
<ele>167.647995</ele>
<time>2013-04-26T07:38:56.000Z</time>
</trkpt>
<trkpt lat="32.7499820" lon="35.2436940">
<ele>167.430008</ele>
<time>2013-04-26T07:38:57.000Z</time>
</trkpt>
<trkpt lat="32.7499290" lon="35.2435950">
<ele>168.140991</ele>
<time>2013-04-26T07:39:01.000Z</time>
</trkpt>
<trkpt lat="32.7500820" lon="35.2434580">
<ele>168.507004</ele>
<time>2013-04-26T07:39:09.000Z</time>
</trkpt>
<trkpt lat="32.7505550" lon="35.2432260">
<ele>167.796997</ele>
<time>2013-04-26T07:39:25.000Z</time>
</trkpt>
<trkpt lat="32.7508170" lon="35.2430610">
<ele>167.633011</ele>
<time>2013-04-26T07:39:35.000Z</time>
</trkpt>
<trkpt lat="32.7508570" lon="35.2429260">
<ele>168.945999</ele>
<time>2013-04-26T07:39:40.000Z</time>
</trkpt>
<trkpt lat="32.7508560" lon="35.2427240">
<ele>170.582001</ele>
<time>2013-04-26T07:39:46.000Z</time>
</trkpt>
<trkpt lat="32.7508910" lon="35.2423550">
<ele>173.957993</ele>
<time>2013-04-26T07:39:57.000Z</time>
</trkpt>
<trkpt lat="32.7509220" lon="35.2420610">
<ele>175.489014</ele>
<time>2013-04-26T07:40:09.000Z</time>
</trkpt>
<trkpt lat="32.7510270" lon="35.2416870">
<ele>178.427994</ele>
<time>2013-04-26T07:40:23.000Z</time>
</trkpt>
<trkpt lat="32.7510730" lon="35.2414400">
<ele>182.330994</ele>
<time>2013-04-26T07:40:32.000Z</time>
</trkpt>
<trkpt lat="32.7510730" lon="35.2414130">
<ele>183.106995</ele>
<time>2013-04-26T07:40:33.000Z</time>
</trkpt>
<trkpt lat="32.7509150" lon="35.2412590">
<ele>182.876999</ele>
<time>2013-04-26T07:40:44.000Z</time>
</trkpt>
<trkpt lat="32.7506600" lon="35.2412400">
<ele>182.804001</ele>
<time>2013-04-26T07:40:58.000Z</time>
</trkpt>
<trkpt lat="32.7506540" lon="35.2412570">
<ele>181.548996</ele>
<time>2013-04-26T07:41:14.000Z</time>
</trkpt>
<trkpt lat="32.7506480" lon="35.2412650">
<ele>183.733994</ele>
<time>2013-04-26T07:42:47.000Z</time>
</trkpt>
</trkseg>
</trk>
</gpx>
